<?xml version='1.0' encoding='UTF-8'?><gpx version="1.1" creator="JPX - https://github.com/jenetics/jpx" xmlns="http://www.topografix.com/GPX/1/1"><trk><trkseg><trkpt lat="49.19332602984153" lon="2.5302106857159044"><ele>51.99999999999999</ele><time>2026-04-07T14:27:55.998Z</time></trkpt><trkpt lat="49.19334892731782" lon="2.5303281927323074"><ele>52.0</ele><time>2026-04-07T14:27:57.998Z</time></trkpt><trkpt lat="49.19337655825259" lon="2.5304495299990655"><ele>52.0</ele><time>2026-04-07T14:27:59.998Z</time></trkpt><trkpt lat="49.19340295674271" lon="2.5305706088556423"><ele>52.0</ele><time>2026-04-07T14:28:01.997Z</time></trkpt><trkpt lat="49.19343040583037" lon="2.5306870055424366"><ele>51.99999999999999</ele><time>2026-04-07T14:28:03.997Z</time></trkpt><trkpt lat="49.193455314622746" lon="2.5308052587833947"><ele>52.0</ele><time>2026-04-07T14:28:05.997Z</time></trkpt><trkpt lat="49.19347967155095" lon="2.530925571603212"><ele>51.99999999999999</ele><time>2026-04-07T14:28:07.997Z</time></trkpt><trkpt lat="49.19350669309057" lon="2.531046255612146"><ele>52.0</ele><time>2026-04-07T14:28:09.997Z</time></trkpt><trkpt lat="49.19353508177928" lon="2.531168062436907"><ele>52.0</ele><time>2026-04-07T14:28:11.997Z</time></trkpt><trkpt lat="49.19356697927739" lon="2.531288855224456"><ele>52.0</ele><time>2026-04-07T14:28:13.997Z</time></trkpt><trkpt lat="49.19359227671085" lon="2.5314128021674587"><ele>51.99999999999999</ele><time>2026-04-07T14:28:15.997Z</time></trkpt><trkpt lat="49.19362471301336" lon="2.5315367673734466"><ele>52.0</ele><time>2026-04-07T14:28:17.997Z</time></trkpt><trkpt lat="49.19366337676788" lon="2.5316616891678425"><ele>52.400000000000006</ele><time>2026-04-07T14:28:19.997Z</time></trkpt><trkpt lat="49.193702209692816" lon="2.531788883529669"><ele>52.800000000000004</ele><time>2026-04-07T14:28:21.997Z</time></trkpt><trkpt lat="49.19374712245329" lon="2.5319149412884743"><ele>53.2</ele><time>2026-04-07T14:28:24Z</time></trkpt><trkpt lat="49.1937880417393" lon="2.5320338004086667"><ele>53.6</ele><time>2026-04-07T14:28:26Z</time></trkpt><trkpt lat="49.19383504997484" lon="2.5321663549712667"><ele>54.0</ele><time>2026-04-07T14:28:28Z</time></trkpt><trkpt lat="49.19388143445571" lon="2.5323013327507633"><ele>54.0</ele><time>2026-04-07T14:28:30Z</time></trkpt><trkpt lat="49.19393028550941" lon="2.532431714000181"><ele>54.00000000000001</ele><time>2026-04-07T14:28:32Z</time></trkpt><trkpt lat="49.19397673043965" lon="2.532568833788939"><ele>54.00000000000001</ele><time>2026-04-07T14:28:34Z</time></trkpt><trkpt lat="49.19402752255774" lon="2.532714773409333"><ele>54.0</ele><time>2026-04-07T14:28:36Z</time></trkpt><trkpt lat="49.19407714207632" lon="2.532856036593973"><ele>54.0</ele><time>2026-04-07T14:28:38Z</time></trkpt><trkpt lat="49.19413242732414" lon="2.532992126072495"><ele>53.800000000000004</ele><time>2026-04-07T14:28:40Z</time></trkpt><trkpt lat="49.19417565818625" lon="2.533144313613457"><ele>53.60000000000001</ele><time>2026-04-07T14:28:42Z</time></trkpt><trkpt lat="49.194213680635286" lon="2.533301634827453"><ele>53.4</ele><time>2026-04-07T14:28:44Z</time></trkpt><trkpt lat="49.1942442735872" lon="2.5334706075577236"><ele>53.2</ele><time>2026-04-07T14:28:46Z</time></trkpt><trkpt lat="49.19425275993084" lon="2.53363844271016"><ele>53.0</ele><time>2026-04-07T14:28:48Z</time></trkpt><trkpt lat="49.194251338138706" lon="2.5338038059944634"><ele>53.00000000000001</ele><time>2026-04-07T14:28:50Z</time></trkpt><trkpt lat="49.19423012975575" lon="2.5339404748573373"><ele>53.0</ele><time>2026-04-07T14:28:52Z</time></trkpt><trkpt lat="49.194199086671034" lon="2.5340444049564415"><ele>53.0</ele><time>2026-04-07T14:28:54Z</time></trkpt><trkpt lat="49.194224890840225" lon="2.5341704835694907"><ele>53.0</ele><time>2026-04-07T14:28:55Z</time></trkpt><trkpt lat="49.194211897713274" lon="2.534317414629373"><ele>53.00000000000001</ele><time>2026-04-07T14:28:57Z</time></trkpt><trkpt lat="49.19421233399363" lon="2.534469243840648"><ele>53.0</ele><time>2026-04-07T14:28:58.999Z</time></trkpt><trkpt lat="49.194204367319614" lon="2.5346111124708717"><ele>53.4</ele><time>2026-04-07T14:29:00.999Z</time></trkpt><trkpt lat="49.194192984891345" lon="2.534754558758307"><ele>53.8</ele><time>2026-04-07T14:29:02.999Z</time></trkpt><trkpt lat="49.194182834050594" lon="2.5348990768708557"><ele>54.2</ele><time>2026-04-07T14:29:04.999Z</time></trkpt><trkpt lat="49.19417277004372" lon="2.535047209872593"><ele>54.6</ele><time>2026-04-07T14:29:06.999Z</time></trkpt><trkpt lat="49.194162753220915" lon="2.535188811493749"><ele>55.0</ele><time>2026-04-07T14:29:08.999Z</time></trkpt><trkpt lat="49.194155736554954" lon="2.535324229426882"><ele>54.99999999999999</ele><time>2026-04-07T14:29:10.999Z</time></trkpt><trkpt lat="49.194151781203615" lon="2.5354565700580762"><ele>55.0</ele><time>2026-04-07T14:29:12.999Z</time></trkpt><trkpt lat="49.19415422935966" lon="2.535582304472425"><ele>55.0</ele><time>2026-04-07T14:29:14.999Z</time></trkpt><trkpt lat="49.1941566162153" lon="2.5357057839610744"><ele>55.0</ele><time>2026-04-07T14:29:16.999Z</time></trkpt><trkpt lat="49.19416131170283" lon="2.5358265950197514"><ele>54.99999999999999</ele><time>2026-04-07T14:29:18.999Z</time></trkpt><trkpt lat="49.19417328117373" lon="2.535944110095994"><ele>55.0</ele><time>2026-04-07T14:29:20.999Z</time></trkpt><trkpt lat="49.194161612753376" lon="2.5360656840925935"><ele>54.99999999999999</ele><time>2026-04-07T14:29:22.999Z</time></trkpt><trkpt lat="49.1941795536991" lon="2.536188772983878"><ele>55.0</ele><time>2026-04-07T14:29:24.999Z</time></trkpt><trkpt lat="49.19417202973817" lon="2.5363184509531127"><ele>55.0</ele><time>2026-04-07T14:29:26.999Z</time></trkpt><trkpt lat="49.19414564395572" lon="2.536441192199956"><ele>55.0</ele><time>2026-04-07T14:29:28.999Z</time></trkpt><trkpt lat="49.194102899204346" lon="2.5365566617463253"><ele>54.99999999999999</ele><time>2026-04-07T14:29:30.999Z</time></trkpt><trkpt lat="49.19405529907126" lon="2.536660845738634"><ele>55.0</ele><time>2026-04-07T14:29:32.998Z</time></trkpt><trkpt lat="49.193987381521474" lon="2.536739585127673"><ele>55.14285714285714</ele><time>2026-04-07T14:29:34.998Z</time></trkpt><trkpt lat="49.19393575313331" lon="2.536840226119541"><ele>55.285714285714285</ele><time>2026-04-07T14:29:36.998Z</time></trkpt><trkpt lat="49.19387905560461" lon="2.536910915413744"><ele>55.42857142857143</ele><time>2026-04-07T14:29:38.998Z</time></trkpt><trkpt lat="49.193819690146405" lon="2.536952395455086"><ele>55.57142857142857</ele><time>2026-04-07T14:29:40.998Z</time></trkpt><trkpt lat="49.19375955642623" lon="2.537013982227648"><ele>55.714285714285715</ele><time>2026-04-07T14:29:42.998Z</time></trkpt><trkpt lat="49.19371333827729" lon="2.5370907448318296"><ele>55.857142857142854</ele><time>2026-04-07T14:29:44.998Z</time></trkpt><trkpt lat="49.19371272384375" lon="2.5372129276171806"><ele>56.0</ele><time>2026-04-07T14:29:46.998Z</time></trkpt><trkpt lat="49.19373107117043" lon="2.537337864167245"><ele>56.00000000000001</ele><time>2026-04-07T14:29:48.998Z</time></trkpt><trkpt lat="49.19373732260002" lon="2.5374674809288127"><ele>56.0</ele><time>2026-04-07T14:29:50.998Z</time></trkpt><trkpt lat="49.19375736252764" lon="2.5375839033534384"><ele>56.0</ele><time>2026-04-07T14:29:52.998Z</time></trkpt><trkpt lat="49.19376406548065" lon="2.5376945165863978"><ele>56.0</ele><time>2026-04-07T14:29:54.998Z</time></trkpt><trkpt lat="49.19375603940051" lon="2.5378184995300024"><ele>56.00000000000001</ele><time>2026-04-07T14:29:56.998Z</time></trkpt><trkpt lat="49.193756946021146" lon="2.5379498645038074"><ele>56.0</ele><time>2026-04-07T14:29:58.998Z</time></trkpt><trkpt lat="49.193727651775454" lon="2.53808423234079"><ele>55.8</ele><time>2026-04-07T14:30:00.998Z</time></trkpt><trkpt lat="49.19372325341981" lon="2.5382407917259844"><ele>55.599999999999994</ele><time>2026-04-07T14:30:02.998Z</time></trkpt><trkpt lat="49.1937480366087" lon="2.5383919165996804"><ele>55.4</ele><time>2026-04-07T14:30:04.998Z</time></trkpt><trkpt lat="49.19376584313368" lon="2.5385517907326167"><ele>55.2</ele><time>2026-04-07T14:30:06.998Z</time></trkpt><trkpt lat="49.19377646860444" lon="2.5387283645826937"><ele>55.0</ele><time>2026-04-07T14:30:08.997Z</time></trkpt><trkpt lat="49.19380179674074" lon="2.538913360033505"><ele>54.666666666666664</ele><time>2026-04-07T14:30:10.997Z</time></trkpt><trkpt lat="49.193820273518" lon="2.5390189295643246"><ele>54.33333333333333</ele><time>2026-04-07T14:30:11.997Z</time></trkpt><trkpt lat="49.19384238767889" lon="2.539117103160496"><ele>54.0</ele><time>2026-04-07T14:30:12.997Z</time></trkpt><trkpt lat="49.193870070313785" lon="2.539211881668416"><ele>53.66666666666667</ele><time>2026-04-07T14:30:13.997Z</time></trkpt><trkpt lat="49.19391929862003" lon="2.5393893129922955"><ele>53.333333333333336</ele><time>2026-04-07T14:30:15.997Z</time></trkpt><trkpt lat="49.19394492707962" lon="2.5394936827558796"><ele>53.0</ele><time>2026-04-07T14:30:16.997Z</time></trkpt><trkpt lat="49.19398413217301" lon="2.5395942353817227"><ele>52.833333333333336</ele><time>2026-04-07T14:30:17.997Z</time></trkpt><trkpt lat="49.19399830576658" lon="2.5397090068783252"><ele>52.66666666666667</ele><time>2026-04-07T14:30:18.997Z</time></trkpt><trkpt lat="49.19402328941812" lon="2.53982110007068"><ele>52.5</ele><time>2026-04-07T14:30:19.997Z</time></trkpt><trkpt lat="49.19403589071184" lon="2.539928047917175"><ele>52.33333333333333</ele><time>2026-04-07T14:30:20.997Z</time></trkpt><trkpt lat="49.19406054718329" lon="2.5400522519191147"><ele>52.166666666666664</ele><time>2026-04-07T14:30:21.997Z</time></trkpt><trkpt lat="49.19408286859963" lon="2.5401654287585647"><ele>52.0</ele><time>2026-04-07T14:30:22.997Z</time></trkpt><trkpt lat="49.19410466783129" lon="2.540275168765637"><ele>51.49999999999999</ele><time>2026-04-07T14:30:23.997Z</time></trkpt><trkpt lat="49.194127169049565" lon="2.540385488373593"><ele>51.0</ele><time>2026-04-07T14:30:24.997Z</time></trkpt><trkpt lat="49.194149010431026" lon="2.54049257276031"><ele>50.5</ele><time>2026-04-07T14:30:25.997Z</time></trkpt><trkpt lat="49.194172379421516" lon="2.540607146858368"><ele>50.0</ele><time>2026-04-07T14:30:26.997Z</time></trkpt><trkpt lat="49.19419602118437" lon="2.5407230582793177"><ele>49.49999999999999</ele><time>2026-04-07T14:30:27.997Z</time></trkpt><trkpt lat="49.19421890560085" lon="2.540835256581694"><ele>49.0</ele><time>2026-04-07T14:30:28.997Z</time></trkpt><trkpt lat="49.19424240192695" lon="2.540950454993087"><ele>48.99999999999999</ele><time>2026-04-07T14:30:30Z</time></trkpt><trkpt lat="49.19427377021281" lon="2.541059658730595"><ele>49.0</ele><time>2026-04-07T14:30:31Z</time></trkpt><trkpt lat="49.194298056200424" lon="2.541163858518526"><ele>49.0</ele><time>2026-04-07T14:30:32Z</time></trkpt><trkpt lat="49.19431994609947" lon="2.5412649981040962"><ele>49.0</ele><time>2026-04-07T14:30:33Z</time></trkpt><trkpt lat="49.19435228271871" lon="2.5414409840107925"><ele>48.99999999999999</ele><time>2026-04-07T14:30:35Z</time></trkpt><trkpt lat="49.19439000885224" lon="2.541590296822126"><ele>49.0</ele><time>2026-04-07T14:30:37Z</time></trkpt><trkpt lat="49.19444530489345" lon="2.5417281174095914"><ele>49.166666666666664</ele><time>2026-04-07T14:30:39Z</time></trkpt><trkpt lat="49.19450482465648" lon="2.541825478476183"><ele>49.33333333333333</ele><time>2026-04-07T14:30:41Z</time></trkpt><trkpt lat="49.194566171527875" lon="2.5419077433684354"><ele>49.5</ele><time>2026-04-07T14:30:43Z</time></trkpt><trkpt lat="49.194624130080456" lon="2.541977591357526"><ele>49.66666666666667</ele><time>2026-04-07T14:30:45Z</time></trkpt><trkpt lat="49.19468671038797" lon="2.5420431982058833"><ele>49.833333333333336</ele><time>2026-04-07T14:30:47Z</time></trkpt><trkpt lat="49.19474363415371" lon="2.5421059316301027"><ele>50.0</ele><time>2026-04-07T14:30:49Z</time></trkpt><trkpt lat="49.1947996093522" lon="2.542161004347375"><ele>50.714285714285715</ele><time>2026-04-07T14:30:51Z</time></trkpt><trkpt lat="49.19485848618743" lon="2.5422177407206026"><ele>51.42857142857143</ele><time>2026-04-07T14:30:53Z</time></trkpt><trkpt lat="49.19491484583418" lon="2.5422733409746927"><ele>52.14285714285714</ele><time>2026-04-07T14:30:55Z</time></trkpt><trkpt lat="49.19497407862482" lon="2.5423298102498033"><ele>52.85714285714286</ele><time>2026-04-07T14:30:57Z</time></trkpt><trkpt lat="49.19502704506885" lon="2.5423953427495847"><ele>53.57142857142857</ele><time>2026-04-07T14:30:59Z</time></trkpt><trkpt lat="49.19507787465732" lon="2.5424699172735665"><ele>54.285714285714285</ele><time>2026-04-07T14:31:01Z</time></trkpt><trkpt lat="49.195125685536865" lon="2.5425487191538085"><ele>55.0</ele><time>2026-04-07T14:31:03Z</time></trkpt><trkpt lat="49.19516756964541" lon="2.542642336644533"><ele>54.99999999999999</ele><time>2026-04-07T14:31:05Z</time></trkpt><trkpt lat="49.19519408638521" lon="2.542742730539478"><ele>55.0</ele><time>2026-04-07T14:31:06.999Z</time></trkpt><trkpt lat="49.19520743038036" lon="2.542852859970376"><ele>55.0</ele><time>2026-04-07T14:31:08.999Z</time></trkpt><trkpt lat="49.195215178852074" lon="2.542962470837084"><ele>55.0</ele><time>2026-04-07T14:31:10.999Z</time></trkpt><trkpt lat="49.195217723025166" lon="2.543070415446522"><ele>55.0</ele><time>2026-04-07T14:31:12.999Z</time></trkpt><trkpt lat="49.1952214183448" lon="2.5431779116467625"><ele>54.99999999999999</ele><time>2026-04-07T14:31:14.999Z</time></trkpt><trkpt lat="49.19522348797587" lon="2.5432947166797053"><ele>55.0</ele><time>2026-04-07T14:31:16.999Z</time></trkpt><trkpt lat="49.19522489276555" lon="2.543407713900842"><ele>55.166666666666664</ele><time>2026-04-07T14:31:18.999Z</time></trkpt><trkpt lat="49.19523212664236" lon="2.543527230454484"><ele>55.33333333333333</ele><time>2026-04-07T14:31:20.999Z</time></trkpt><trkpt lat="49.19523589345786" lon="2.543648033736628"><ele>55.5</ele><time>2026-04-07T14:31:22.999Z</time></trkpt><trkpt lat="49.195238034158926" lon="2.5437730316059644"><ele>55.66666666666667</ele><time>2026-04-07T14:31:24.999Z</time></trkpt><trkpt lat="49.19524293312615" lon="2.5438985190302246"><ele>55.833333333333336</ele><time>2026-04-07T14:31:26.999Z</time></trkpt><trkpt lat="49.19524715071363" lon="2.5440288261569304"><ele>56.0</ele><time>2026-04-07T14:31:28.999Z</time></trkpt><trkpt lat="49.1952517900747" lon="2.544157728687672"><ele>56.00000000000001</ele><time>2026-04-07T14:31:30.999Z</time></trkpt><trkpt lat="49.19525511027131" lon="2.544291294877424"><ele>56.0</ele><time>2026-04-07T14:31:32.999Z</time></trkpt><trkpt lat="49.19526470327929" lon="2.5444243738000503"><ele>56.0</ele><time>2026-04-07T14:31:34.999Z</time></trkpt><trkpt lat="49.19527045188923" lon="2.544557560755652"><ele>56.0</ele><time>2026-04-07T14:31:36.999Z</time></trkpt><trkpt lat="49.19527596464366" lon="2.5446977241832305"><ele>56.00000000000001</ele><time>2026-04-07T14:31:38.999Z</time></trkpt><trkpt lat="49.19526558897038" lon="2.5448359540585215"><ele>56.0</ele><time>2026-04-07T14:31:40.998Z</time></trkpt><trkpt lat="49.19518192950496" lon="2.5448845620526113"><ele>55.857142857142854</ele><time>2026-04-07T14:31:43.998Z</time></trkpt><trkpt lat="49.19511913306832" lon="2.5449005725980713"><ele>55.714285714285715</ele><time>2026-04-07T14:31:45.998Z</time></trkpt><trkpt lat="49.195039383620774" lon="2.54492519651489"><ele>55.57142857142857</ele><time>2026-04-07T14:31:48.998Z</time></trkpt><trkpt lat="49.19497841773462" lon="2.5449620701950035"><ele>55.42857142857143</ele><time>2026-04-07T14:31:51.998Z</time></trkpt><trkpt lat="49.19491515234187" lon="2.5449479120915455"><ele>55.285714285714285</ele><time>2026-04-07T14:35:38.999Z</time></trkpt><trkpt lat="49.194843127797455" lon="2.544985793625785"><ele>55.14285714285714</ele><time>2026-04-07T14:44:33.998Z</time></trkpt><trkpt lat="49.19477522448214" lon="2.5450296230759357"><ele>55.0</ele><time>2026-04-07T14:44:36.998Z</time></trkpt><trkpt lat="49.19469242354339" lon="2.545030705376858"><ele>55.28571428571428</ele><time>2026-04-07T14:44:39.998Z</time></trkpt><trkpt lat="49.19461603586344" lon="2.5450763352199264"><ele>55.57142857142857</ele><time>2026-04-07T14:44:42.998Z</time></trkpt><trkpt lat="49.194526117039494" lon="2.5450972833447376"><ele>55.857142857142854</ele><time>2026-04-07T14:44:45.998Z</time></trkpt><trkpt lat="49.194456282895516" lon="2.5451056623872095"><ele>56.14285714285714</ele><time>2026-04-07T14:44:47.998Z</time></trkpt><trkpt lat="49.194392415849734" lon="2.5451186515755206"><ele>56.42857142857142</ele><time>2026-04-07T14:44:49.998Z</time></trkpt><trkpt lat="49.194330391097225" lon="2.545136897074798"><ele>56.71428571428571</ele><time>2026-04-07T14:44:51.998Z</time></trkpt><trkpt lat="49.194268734871635" lon="2.5451701426870095"><ele>57.0</ele><time>2026-04-07T14:44:53.998Z</time></trkpt><trkpt lat="49.194206872946374" lon="2.5451949453839666"><ele>57.0</ele><time>2026-04-07T14:44:55.998Z</time></trkpt><trkpt lat="49.19412259712886" lon="2.5452175678177364"><ele>57.0</ele><time>2026-04-07T14:44:58.998Z</time></trkpt><trkpt lat="49.19406348165075" lon="2.5452509684836544"><ele>57.0</ele><time>2026-04-07T14:45:00.997Z</time></trkpt><trkpt lat="49.19399697100423" lon="2.545249003952132"><ele>57.0</ele><time>2026-04-07T14:45:02.997Z</time></trkpt><trkpt lat="49.193931312198146" lon="2.54527680376238"><ele>57.0</ele><time>2026-04-07T14:45:04.997Z</time></trkpt><trkpt lat="49.1938437825177" lon="2.5453092025225894"><ele>57.0</ele><time>2026-04-07T14:45:07.997Z</time></trkpt><trkpt lat="49.193766950069325" lon="2.5453382958552635"><ele>56.833333333333336</ele><time>2026-04-07T14:45:10.997Z</time></trkpt><trkpt lat="49.193682689382186" lon="2.54534568080255"><ele>56.66666666666667</ele><time>2026-04-07T14:45:14Z</time></trkpt><trkpt lat="49.193608415438895" lon="2.545381659527625"><ele>56.5</ele><time>2026-04-07T14:45:17Z</time></trkpt><trkpt lat="49.19352274375308" lon="2.5454251409056456"><ele>56.333333333333336</ele><time>2026-04-07T14:45:20Z</time></trkpt><trkpt lat="49.19345766391117" lon="2.5454405752470626"><ele>56.16666666666667</ele><time>2026-04-07T14:45:22Z</time></trkpt><trkpt lat="49.19338898170306" lon="2.5454589496345084"><ele>56.0</ele><time>2026-04-07T14:45:24Z</time></trkpt><trkpt lat="49.19330083649116" lon="2.5454721623098617"><ele>56.714285714285715</ele><time>2026-04-07T14:45:27Z</time></trkpt><trkpt lat="49.19323203392863" lon="2.5454897927906535"><ele>57.42857142857143</ele><time>2026-04-07T14:45:29Z</time></trkpt><trkpt lat="49.193136559774416" lon="2.545513211359643"><ele>58.14285714285714</ele><time>2026-04-07T14:45:32Z</time></trkpt><trkpt lat="49.193073037829684" lon="2.5455108862287217"><ele>58.857142857142854</ele><time>2026-04-07T14:45:34Z</time></trkpt><trkpt lat="49.19300225078661" lon="2.54553613626942"><ele>59.57142857142857</ele><time>2026-04-07T14:45:36Z</time></trkpt><trkpt lat="49.19293181193928" lon="2.5455521649275346"><ele>60.28571428571428</ele><time>2026-04-07T14:45:37.999Z</time></trkpt><trkpt lat="49.19285791449513" lon="2.5455541761623186"><ele>60.99999999999999</ele><time>2026-04-07T14:45:39.999Z</time></trkpt><trkpt lat="49.192786595834505" lon="2.5455667049078197"><ele>60.99999999999999</ele><time>2026-04-07T14:45:41.999Z</time></trkpt><trkpt lat="49.1927157163341" lon="2.5455758048501256"><ele>61.0</ele><time>2026-04-07T14:45:43.999Z</time></trkpt><trkpt lat="49.19261782627169" lon="2.5456066577769625"><ele>60.99999999999999</ele><time>2026-04-07T14:45:45.999Z</time></trkpt><trkpt lat="49.19254633393599" lon="2.5455658066070597"><ele>60.99999999999999</ele><time>2026-04-07T14:45:48.999Z</time></trkpt><trkpt lat="49.1924801193386" lon="2.5455747057812887"><ele>61.0</ele><time>2026-04-07T14:45:50.999Z</time></trkpt><trkpt lat="49.19241080131438" lon="2.5455804315855057"><ele>60.99999999999999</ele><time>2026-04-07T14:45:52.999Z</time></trkpt><trkpt lat="49.192347381489014" lon="2.5455856701842814"><ele>60.99999999999999</ele><time>2026-04-07T14:45:54.999Z</time></trkpt><trkpt lat="49.192282833273325" lon="2.5455895166591356"><ele>61.49999999999999</ele><time>2026-04-07T14:45:56.999Z</time></trkpt><trkpt lat="49.19221239762449" lon="2.5455904181599305"><ele>62.0</ele><time>2026-04-07T14:45:58.999Z</time></trkpt><trkpt lat="49.192120473917115" lon="2.5455904181611757"><ele>62.5</ele><time>2026-04-07T14:46:01.999Z</time></trkpt><trkpt lat="49.19205304883307" lon="2.545585515305132"><ele>63.0</ele><time>2026-04-07T14:46:03.999Z</time></trkpt><trkpt lat="49.19196735817924" lon="2.545593482776546"><ele>63.49999999999999</ele><time>2026-04-07T14:46:06.999Z</time></trkpt><trkpt lat="49.19188997732584" lon="2.545572961411492"><ele>64.0</ele><time>2026-04-07T14:46:08.999Z</time></trkpt><trkpt lat="49.19179752135166" lon="2.545563978061365"><ele>63.99999999999999</ele><time>2026-04-07T14:46:11.999Z</time></trkpt><trkpt lat="49.191698119438726" lon="2.5455743966994464"><ele>64.0</ele><time>2026-04-07T14:46:14.999Z</time></trkpt><trkpt lat="49.19160423839982" lon="2.5455671872623387"><ele>64.0</ele><time>2026-04-07T14:46:17.999Z</time></trkpt><trkpt lat="49.19152886714217" lon="2.545563158288879"><ele>64.0</ele><time>2026-04-07T14:46:19.999Z</time></trkpt><trkpt lat="49.19144617774933" lon="2.5455435155054333"><ele>63.99999999999999</ele><time>2026-04-07T14:46:21.999Z</time></trkpt><trkpt lat="49.19138172921446" lon="2.545545062119042"><ele>64.0</ele><time>2026-04-07T14:46:23.999Z</time></trkpt><trkpt lat="49.19130148816352" lon="2.5455343561786794"><ele>64.0</ele><time>2026-04-07T14:46:25.999Z</time></trkpt><trkpt lat="49.191231244259384" lon="2.545541473148865"><ele>63.99999999999999</ele><time>2026-04-07T14:46:27.999Z</time></trkpt><trkpt lat="49.19115688891584" lon="2.5455246962393447"><ele>64.0</ele><time>2026-04-07T14:46:29.999Z</time></trkpt><trkpt lat="49.19109257988498" lon="2.5455156498820397"><ele>64.0</ele><time>2026-04-07T14:46:31.998Z</time></trkpt><trkpt lat="49.19101888654701" lon="2.5455085231366796"><ele>63.99999999999999</ele><time>2026-04-07T14:46:33.998Z</time></trkpt><trkpt lat="49.190941913285876" lon="2.5454884115151866"><ele>64.0</ele><time>2026-04-07T14:46:35.998Z</time></trkpt><trkpt lat="49.190864269669014" lon="2.5454910575621037"><ele>64.0</ele><time>2026-04-07T14:46:37.998Z</time></trkpt><trkpt lat="49.190792168226956" lon="2.545482175261302"><ele>63.99999999999999</ele><time>2026-04-07T14:46:39.998Z</time></trkpt><trkpt lat="49.190716604367296" lon="2.54545378086462"><ele>64.0</ele><time>2026-04-07T14:46:41.998Z</time></trkpt><trkpt lat="49.19063562431372" lon="2.5454677480009686"><ele>64.0</ele><time>2026-04-07T14:46:43.998Z</time></trkpt><trkpt lat="49.1905610759694" lon="2.5454830595275513"><ele>64.0</ele><time>2026-04-07T14:46:45.998Z</time></trkpt><trkpt lat="49.19047029402518" lon="2.545502367704467"><ele>63.99999999999999</ele><time>2026-04-07T14:46:48.998Z</time></trkpt><trkpt lat="49.19040835509884" lon="2.5454692688314955"><ele>64.0</ele><time>2026-04-07T14:46:51.998Z</time></trkpt><trkpt lat="49.19037897729445" lon="2.5453767804664524"><ele>63.166666666666664</ele><time>2026-04-07T14:47:30.999Z</time></trkpt><trkpt lat="49.19038032596451" lon="2.5452374865736798"><ele>62.33333333333333</ele><time>2026-04-07T14:47:33.999Z</time></trkpt><trkpt lat="49.19035240082195" lon="2.54511063847759"><ele>61.5</ele><time>2026-04-07T14:47:36.999Z</time></trkpt><trkpt lat="49.190341136438484" lon="2.545014732962837"><ele>60.66666666666667</ele><time>2026-04-07T14:47:38.999Z</time></trkpt><trkpt lat="49.19032401434752" lon="2.5449070921309795"><ele>59.833333333333336</ele><time>2026-04-07T14:47:41.999Z</time></trkpt><trkpt lat="49.190313971289356" lon="2.5448112825152296"><ele>59.0</ele><time>2026-04-07T14:47:43.999Z</time></trkpt><trkpt lat="49.19032301998193" lon="2.544702320989783"><ele>59.00000000000001</ele><time>2026-04-07T14:47:46.999Z</time></trkpt><trkpt lat="49.19035217952396" lon="2.54458986208791"><ele>59.0</ele><time>2026-04-07T14:47:48.999Z</time></trkpt><trkpt lat="49.19037131023975" lon="2.5444834815154675"><ele>59.0</ele><time>2026-04-07T14:47:50.999Z</time></trkpt><trkpt lat="49.19041227408739" lon="2.5443758116114576"><ele>59.0</ele><time>2026-04-07T14:47:52.999Z</time></trkpt><trkpt lat="49.19042918691057" lon="2.544204136242969"><ele>59.00000000000001</ele><time>2026-04-07T14:47:55.999Z</time></trkpt><trkpt lat="49.19044619992554" lon="2.544073061158917"><ele>59.0</ele><time>2026-04-07T14:47:57.999Z</time></trkpt><trkpt lat="49.19046212665053" lon="2.5439522577810005"><ele>58.66666666666667</ele><time>2026-04-07T14:47:59.999Z</time></trkpt><trkpt lat="49.19045909777961" lon="2.543855278229758"><ele>58.333333333333336</ele><time>2026-04-07T14:48:01.999Z</time></trkpt><trkpt lat="49.190451339246074" lon="2.543719921772052"><ele>58.0</ele><time>2026-04-07T14:48:03.999Z</time></trkpt><trkpt lat="49.1904427619019" lon="2.543582791905735"><ele>57.66666666666667</ele><time>2026-04-07T14:48:06.999Z</time></trkpt><trkpt lat="49.19043406069282" lon="2.5434708963400205"><ele>57.333333333333336</ele><time>2026-04-07T14:48:08.999Z</time></trkpt><trkpt lat="49.19042680570351" lon="2.543366974778088"><ele>57.0</ele><time>2026-04-07T14:48:10.999Z</time></trkpt><trkpt lat="49.19038511354184" lon="2.5432856042837115"><ele>57.0</ele><time>2026-04-07T14:48:13.999Z</time></trkpt><trkpt lat="49.19037810474615" lon="2.543168007681626"><ele>56.99999999999999</ele><time>2026-04-07T14:48:30.998Z</time></trkpt><trkpt lat="49.19033102848065" lon="2.5430680533535552"><ele>57.0</ele><time>2026-04-07T14:48:33.998Z</time></trkpt><trkpt lat="49.19031823715346" lon="2.542962077012615"><ele>57.0</ele><time>2026-04-07T14:48:37.998Z</time></trkpt><trkpt lat="49.19030548077516" lon="2.5428595648644605"><ele>56.99999999999999</ele><time>2026-04-07T14:48:42.998Z</time></trkpt><trkpt lat="49.190299882695236" lon="2.542736759471439"><ele>57.0</ele><time>2026-04-07T14:48:46.998Z</time></trkpt><trkpt lat="49.190284269811436" lon="2.5426294795394275"><ele>57.0</ele><time>2026-04-07T14:48:49.998Z</time></trkpt><trkpt lat="49.19027302883518" lon="2.5425150070115845"><ele>56.833333333333336</ele><time>2026-04-07T14:48:52.998Z</time></trkpt><trkpt lat="49.1902653956716" lon="2.542405313270181"><ele>56.66666666666667</ele><time>2026-04-07T14:48:55.998Z</time></trkpt><trkpt lat="49.19025419030633" lon="2.542298083164561"><ele>56.5</ele><time>2026-04-07T14:48:58.998Z</time></trkpt><trkpt lat="49.19024224295965" lon="2.5421673358809405"><ele>56.333333333333336</ele><time>2026-04-07T14:49:02.998Z</time></trkpt><trkpt lat="49.19023413540001" lon="2.5420461817769864"><ele>56.16666666666667</ele><time>2026-04-07T14:49:06.998Z</time></trkpt><trkpt lat="49.19022028637646" lon="2.541939916133227"><ele>56.0</ele><time>2026-04-07T14:49:09.998Z</time></trkpt><trkpt lat="49.190209505507255" lon="2.5418227698641447"><ele>56.00000000000001</ele><time>2026-04-07T14:49:12.998Z</time></trkpt><trkpt lat="49.19020561348128" lon="2.5416973731548396"><ele>56.0</ele><time>2026-04-07T14:49:15.998Z</time></trkpt><trkpt lat="49.1901952994112" lon="2.541589184655379"><ele>56.0</ele><time>2026-04-07T14:49:18.998Z</time></trkpt><trkpt lat="49.19018910543585" lon="2.541468973814728"><ele>56.0</ele><time>2026-04-07T14:49:23Z</time></trkpt><trkpt lat="49.190192070080265" lon="2.54136422379828"><ele>56.00000000000001</ele><time>2026-04-07T14:49:25Z</time></trkpt><trkpt lat="49.190210176019036" lon="2.541248603459501"><ele>56.0</ele><time>2026-04-07T14:49:28Z</time></trkpt><trkpt lat="49.19020730976646" lon="2.541129565078646"><ele>55.57142857142857</ele><time>2026-04-07T14:49:31Z</time></trkpt><trkpt lat="49.190217998441824" lon="2.541031915501977"><ele>55.14285714285714</ele><time>2026-04-07T14:49:33Z</time></trkpt><trkpt lat="49.19025001817884" lon="2.540929011958154"><ele>54.714285714285715</ele><time>2026-04-07T14:49:35Z</time></trkpt><trkpt lat="49.19025601271359" lon="2.540832215126883"><ele>54.285714285714285</ele><time>2026-04-07T14:49:37Z</time></trkpt><trkpt lat="49.19027801166071" lon="2.5407250924675817"><ele>53.857142857142854</ele><time>2026-04-07T14:49:39Z</time></trkpt><trkpt lat="49.190288294587" lon="2.540610166707944"><ele>53.42857142857143</ele><time>2026-04-07T14:49:41Z</time></trkpt><trkpt lat="49.19030047383014" lon="2.540515339920612"><ele>53.0</ele><time>2026-04-07T14:49:43Z</time></trkpt><trkpt lat="49.19031346720784" lon="2.5404068766333636"><ele>52.42857142857143</ele><time>2026-04-07T14:49:45Z</time></trkpt><trkpt lat="49.19032555161576" lon="2.5403057890534373"><ele>51.857142857142854</ele><time>2026-04-07T14:49:47Z</time></trkpt><trkpt lat="49.190345698022874" lon="2.5402137266138443"><ele>51.285714285714285</ele><time>2026-04-07T14:49:49Z</time></trkpt><trkpt lat="49.19034214728311" lon="2.5400591453294337"><ele>50.714285714285715</ele><time>2026-04-07T14:49:52Z</time></trkpt><trkpt lat="49.190354972298195" lon="2.539952054597629"><ele>50.14285714285714</ele><time>2026-04-07T14:49:54Z</time></trkpt><trkpt lat="49.19036692066269" lon="2.539845418191442"><ele>49.57142857142857</ele><time>2026-04-07T14:49:56Z</time></trkpt><trkpt lat="49.19038048893986" lon="2.539741798779316"><ele>49.0</ele><time>2026-04-07T14:49:58Z</time></trkpt><trkpt lat="49.19039156649263" lon="2.5396087231907516"><ele>48.83333333333333</ele><time>2026-04-07T14:50:00.999Z</time></trkpt><trkpt lat="49.19041123071889" lon="2.539481934098723"><ele>48.666666666666664</ele><time>2026-04-07T14:50:03.999Z</time></trkpt><trkpt lat="49.19043617056297" lon="2.53938459458046"><ele>48.5</ele><time>2026-04-07T14:50:06.999Z</time></trkpt><trkpt lat="49.190451607592756" lon="2.539265876172963"><ele>48.33333333333333</ele><time>2026-04-07T14:50:09.999Z</time></trkpt><trkpt lat="49.19046845263294" lon="2.539136329411527"><ele>48.166666666666664</ele><time>2026-04-07T14:50:12.999Z</time></trkpt><trkpt lat="49.1904858319122" lon="2.539002674250319"><ele>48.0</ele><time>2026-04-07T14:50:15.999Z</time></trkpt><trkpt lat="49.190498228484834" lon="2.5389073384250636"><ele>48.0</ele><time>2026-04-07T14:50:17.999Z</time></trkpt><trkpt lat="49.19051760304567" lon="2.5387583383793433"><ele>48.0</ele><time>2026-04-07T14:50:20.999Z</time></trkpt><trkpt lat="49.190519693813286" lon="2.538612923808458"><ele>48.0</ele><time>2026-04-07T14:50:23.999Z</time></trkpt><trkpt lat="49.19054927080561" lon="2.5385147976725033"><ele>48.0</ele><time>2026-04-07T14:50:25.999Z</time></trkpt><trkpt lat="49.190562551855535" lon="2.538412661355797"><ele>48.0</ele><time>2026-04-07T14:50:27.999Z</time></trkpt><trkpt lat="49.19057507208386" lon="2.5383165270585057"><ele>48.0</ele><time>2026-04-07T14:50:29.999Z</time></trkpt><trkpt lat="49.19059437473916" lon="2.5381682198773152"><ele>48.333333333333336</ele><time>2026-04-07T14:50:32.999Z</time></trkpt><trkpt lat="49.19061260289915" lon="2.5380281683146717"><ele>48.66666666666667</ele><time>2026-04-07T14:50:35.999Z</time></trkpt><trkpt lat="49.190610737990085" lon="2.537927298337627"><ele>49.0</ele><time>2026-04-07T14:50:37.999Z</time></trkpt><trkpt lat="49.19064321514712" lon="2.537794777056332"><ele>49.333333333333336</ele><time>2026-04-07T14:50:40.999Z</time></trkpt><trkpt lat="49.19066269610923" lon="2.537650130839425"><ele>49.66666666666667</ele><time>2026-04-07T14:50:43.999Z</time></trkpt><trkpt lat="49.19067573041737" lon="2.5375502834644057"><ele>50.0</ele><time>2026-04-07T14:50:45.999Z</time></trkpt><trkpt lat="49.19067806290672" lon="2.5374055663575135"><ele>50.333333333333336</ele><time>2026-04-07T14:50:48.999Z</time></trkpt><trkpt lat="49.19069675627512" lon="2.5372897184968575"><ele>50.66666666666667</ele><time>2026-04-07T14:50:50.999Z</time></trkpt><trkpt lat="49.19070982760545" lon="2.537190605656973"><ele>51.0</ele><time>2026-04-07T14:50:52.999Z</time></trkpt><trkpt lat="49.1907373682633" lon="2.5370560988229047"><ele>51.33333333333333</ele><time>2026-04-07T14:50:55.998Z</time></trkpt><trkpt lat="49.190751813043086" lon="2.5369386754620806"><ele>51.666666666666664</ele><time>2026-04-07T14:50:57.998Z</time></trkpt><trkpt lat="49.19076499313847" lon="2.5368315328455053"><ele>52.0</ele><time>2026-04-07T14:50:59.998Z</time></trkpt><trkpt lat="49.19076278164276" lon="2.536723300925892"><ele>52.166666666666664</ele><time>2026-04-07T14:51:01.998Z</time></trkpt><trkpt lat="49.190781891096414" lon="2.536616538573659"><ele>52.33333333333333</ele><time>2026-04-07T14:51:03.998Z</time></trkpt><trkpt lat="49.19079293558405" lon="2.536505640119195"><ele>52.5</ele><time>2026-04-07T14:51:05.998Z</time></trkpt><trkpt lat="49.19080623368285" lon="2.5363896911299584"><ele>52.66666666666667</ele><time>2026-04-07T14:51:07.998Z</time></trkpt><trkpt lat="49.19083226448419" lon="2.536283434533493"><ele>52.833333333333336</ele><time>2026-04-07T14:51:09.998Z</time></trkpt><trkpt lat="49.1908467587" lon="2.5361650910754716"><ele>53.0</ele><time>2026-04-07T14:51:11.998Z</time></trkpt><trkpt lat="49.190860479428544" lon="2.536053062984151"><ele>53.142857142857146</ele><time>2026-04-07T14:51:13.998Z</time></trkpt><trkpt lat="49.19087445147178" lon="2.5359389828870498"><ele>53.285714285714285</ele><time>2026-04-07T14:51:15.998Z</time></trkpt><trkpt lat="49.190888314299514" lon="2.535825794636426"><ele>53.42857142857143</ele><time>2026-04-07T14:51:17.998Z</time></trkpt><trkpt lat="49.190902018934096" lon="2.535713411660102"><ele>53.57142857142857</ele><time>2026-04-07T14:51:19.998Z</time></trkpt><trkpt lat="49.19091496312998" lon="2.535604511195459"><ele>53.71428571428571</ele><time>2026-04-07T14:51:21.998Z</time></trkpt><trkpt lat="49.190913071274615" lon="2.53549093963788"><ele>53.857142857142854</ele><time>2026-04-07T14:51:23.998Z</time></trkpt><trkpt lat="49.190941066216524" lon="2.535384904009219"><ele>54.0</ele><time>2026-04-07T14:51:25.998Z</time></trkpt><trkpt lat="49.19095365701653" lon="2.535278976667856"><ele>54.0</ele><time>2026-04-07T14:51:27.998Z</time></trkpt><trkpt lat="49.19096723289737" lon="2.5351647617763553"><ele>54.0</ele><time>2026-04-07T14:51:30.001Z</time></trkpt><trkpt lat="49.19098044336439" lon="2.5350524447677985"><ele>54.0</ele><time>2026-04-07T14:51:32.001Z</time></trkpt><trkpt lat="49.19097764625528" lon="2.534934554019674"><ele>54.0</ele><time>2026-04-07T14:51:34.001Z</time></trkpt><trkpt lat="49.19100718348386" lon="2.5348237649767524"><ele>54.0</ele><time>2026-04-07T14:51:36.001Z</time></trkpt><trkpt lat="49.19102096975929" lon="2.5347058656923673"><ele>54.0</ele><time>2026-04-07T14:51:38.001Z</time></trkpt><trkpt lat="49.19102141380792" lon="2.5345805535769377"><ele>54.333333333333336</ele><time>2026-04-07T14:51:40.001Z</time></trkpt><trkpt lat="49.19103664092978" lon="2.534460207666568"><ele>54.66666666666667</ele><time>2026-04-07T14:51:42.001Z</time></trkpt><trkpt lat="49.19106266142449" lon="2.5343374000494734"><ele>55.0</ele><time>2026-04-07T14:51:44.001Z</time></trkpt><trkpt lat="49.19106232605869" lon="2.534218766141366"><ele>55.333333333333336</ele><time>2026-04-07T14:51:46Z</time></trkpt><trkpt lat="49.191076016526324" lon="2.534108326272313"><ele>55.66666666666667</ele><time>2026-04-07T14:51:48Z</time></trkpt><trkpt lat="49.19109320904709" lon="2.5339880826811405"><ele>56.0</ele><time>2026-04-07T14:51:50Z</time></trkpt><trkpt lat="49.191106266727466" lon="2.533866662724434"><ele>56.00000000000001</ele><time>2026-04-07T14:51:52Z</time></trkpt><trkpt lat="49.19111887076064" lon="2.5337511818928395"><ele>56.0</ele><time>2026-04-07T14:51:54Z</time></trkpt><trkpt lat="49.191134618422694" lon="2.5336263858583425"><ele>56.0</ele><time>2026-04-07T14:51:56Z</time></trkpt><trkpt lat="49.191149895363054" lon="2.5335070537846787"><ele>56.0</ele><time>2026-04-07T14:51:58Z</time></trkpt><trkpt lat="49.191160883184935" lon="2.5333894889006685"><ele>56.00000000000001</ele><time>2026-04-07T14:52:00Z</time></trkpt><trkpt lat="49.19117241069667" lon="2.5332720492534735"><ele>56.0</ele><time>2026-04-07T14:52:02Z</time></trkpt><trkpt lat="49.191186941816035" lon="2.5331546859897807"><ele>56.16666666666667</ele><time>2026-04-07T14:52:04Z</time></trkpt><trkpt lat="49.19119535704323" lon="2.5330305074496082"><ele>56.333333333333336</ele><time>2026-04-07T14:52:06Z</time></trkpt><trkpt lat="49.19120372449852" lon="2.5329037880918324"><ele>56.5</ele><time>2026-04-07T14:52:08Z</time></trkpt><trkpt lat="49.191213019742975" lon="2.532773357494168"><ele>56.66666666666667</ele><time>2026-04-07T14:52:10Z</time></trkpt><trkpt lat="49.191230065926284" lon="2.5326479031491607"><ele>56.833333333333336</ele><time>2026-04-07T14:52:12Z</time></trkpt><trkpt lat="49.191235478504346" lon="2.5325210497120945"><ele>57.0</ele><time>2026-04-07T14:52:14Z</time></trkpt><trkpt lat="49.19123888358341" lon="2.5323926372717063"><ele>56.666666666666664</ele><time>2026-04-07T14:52:16Z</time></trkpt><trkpt lat="49.19124130589166" lon="2.532267079294581"><ele>56.33333333333333</ele><time>2026-04-07T14:52:18Z</time></trkpt><trkpt lat="49.191240799960454" lon="2.5321426763973762"><ele>56.0</ele><time>2026-04-07T14:52:20Z</time></trkpt><trkpt lat="49.191239839599916" lon="2.5320143027494466"><ele>55.666666666666664</ele><time>2026-04-07T14:52:22Z</time></trkpt><trkpt lat="49.19122180922712" lon="2.531890279100613"><ele>55.33333333333333</ele><time>2026-04-07T14:52:24Z</time></trkpt><trkpt lat="49.191234968145295" lon="2.531762698163123"><ele>55.0</ele><time>2026-04-07T14:52:25.999Z</time></trkpt><trkpt lat="49.191230973803485" lon="2.5316320641575087"><ele>54.99999999999999</ele><time>2026-04-07T14:52:27.999Z</time></trkpt><trkpt lat="49.19122698542215" lon="2.531501625008057"><ele>55.0</ele><time>2026-04-07T14:52:29.999Z</time></trkpt><trkpt lat="49.19122135739931" lon="2.5313618434559504"><ele>55.0</ele><time>2026-04-07T14:52:31.999Z</time></trkpt><trkpt lat="49.191215919193105" lon="2.5312316505620855"><ele>55.0</ele><time>2026-04-07T14:52:33.999Z</time></trkpt><trkpt lat="49.19120232400207" lon="2.5311133917616386"><ele>54.99999999999999</ele><time>2026-04-07T14:52:35.999Z</time></trkpt><trkpt lat="49.19119171154283" lon="2.5309867132463184"><ele>55.0</ele><time>2026-04-07T14:52:37.999Z</time></trkpt><trkpt lat="49.191184756905486" lon="2.530853149522972"><ele>54.99999999999999</ele><time>2026-04-07T14:52:39.999Z</time></trkpt><trkpt lat="49.19119464852833" lon="2.530722421960704"><ele>55.0</ele><time>2026-04-07T14:52:41.999Z</time></trkpt><trkpt lat="49.191188736348735" lon="2.5305808819913254"><ele>55.0</ele><time>2026-04-07T14:52:43.999Z</time></trkpt><trkpt lat="49.19118422171464" lon="2.5304539133331874"><ele>55.0</ele><time>2026-04-07T14:52:45.999Z</time></trkpt><trkpt lat="49.19117968056841" lon="2.530321273935303"><ele>54.99999999999999</ele><time>2026-04-07T14:52:47.999Z</time></trkpt><trkpt lat="49.191176083252614" lon="2.5301951527243607"><ele>55.0</ele><time>2026-04-07T14:52:49.999Z</time></trkpt><trkpt lat="49.19117300751902" lon="2.5300749818003383"><ele>54.99999999999999</ele><time>2026-04-07T14:52:51.999Z</time></trkpt><trkpt lat="49.1911700833336" lon="2.529960731955408"><ele>55.0</ele><time>2026-04-07T14:52:53.999Z</time></trkpt><trkpt lat="49.19116732311803" lon="2.529852888505441"><ele>55.0</ele><time>2026-04-07T14:52:55.999Z</time></trkpt><trkpt lat="49.19116434812088" lon="2.5297366534512413"><ele>55.0</ele><time>2026-04-07T14:52:57.999Z</time></trkpt><trkpt lat="49.191156232235116" lon="2.529618838563695"><ele>55.0</ele><time>2026-04-07T14:52:59.999Z</time></trkpt><trkpt lat="49.19115008480836" lon="2.5295149385220737"><ele>54.99999999999999</ele><time>2026-04-07T14:53:01.999Z</time></trkpt><trkpt lat="49.19115579974864" lon="2.529402663076307"><ele>55.0</ele><time>2026-04-07T14:53:03.999Z</time></trkpt><trkpt lat="49.1911529147914" lon="2.5292899459119136"><ele>54.857142857142854</ele><time>2026-04-07T14:53:05.999Z</time></trkpt><trkpt lat="49.19113470569195" lon="2.5291936083577853"><ele>54.714285714285715</ele><time>2026-04-07T14:53:07.999Z</time></trkpt><trkpt lat="49.19114795426977" lon="2.529096135251565"><ele>54.57142857142857</ele><time>2026-04-07T14:53:09.999Z</time></trkpt><trkpt lat="49.1911286856526" lon="2.5289926943077803"><ele>54.42857142857143</ele><time>2026-04-07T14:53:11.999Z</time></trkpt><trkpt lat="49.19114288388899" lon="2.528898032143129"><ele>54.285714285714285</ele><time>2026-04-07T14:53:13.999Z</time></trkpt><trkpt lat="49.19113971180545" lon="2.5287740977823674"><ele>54.14285714285714</ele><time>2026-04-07T14:53:15.998Z</time></trkpt><trkpt lat="49.19113575273258" lon="2.5286730441465197"><ele>54.0</ele><time>2026-04-07T14:53:17.998Z</time></trkpt><trkpt lat="49.19113214584769" lon="2.528563769537135"><ele>54.0</ele><time>2026-04-07T14:53:19.998Z</time></trkpt><trkpt lat="49.191128474585035" lon="2.528452775657246"><ele>54.0</ele><time>2026-04-07T14:53:21.998Z</time></trkpt><trkpt lat="49.19112489290077" lon="2.5283444900100625"><ele>54.0</ele><time>2026-04-07T14:53:23.998Z</time></trkpt><trkpt lat="49.19112121958641" lon="2.5282334341149935"><ele>54.0</ele><time>2026-04-07T14:53:25.998Z</time></trkpt><trkpt lat="49.191117404431154" lon="2.5281180899102598"><ele>54.0</ele><time>2026-04-07T14:53:27.998Z</time></trkpt><trkpt lat="49.191112535773016" lon="2.527998363417627"><ele>54.0</ele><time>2026-04-07T14:53:29.998Z</time></trkpt><trkpt lat="49.19110747482026" lon="2.5278778966701414"><ele>54.0</ele><time>2026-04-07T14:53:31.998Z</time></trkpt><trkpt lat="49.191103124707205" lon="2.5277743500907173"><ele>54.0</ele><time>2026-04-07T14:53:34.001Z</time></trkpt><trkpt lat="49.19108337532587" lon="2.5276686694154726"><ele>54.0</ele><time>2026-04-07T14:53:36.001Z</time></trkpt><trkpt lat="49.19107741082853" lon="2.5275542706708927"><ele>54.0</ele><time>2026-04-07T14:53:38.001Z</time></trkpt><trkpt lat="49.19107728024417" lon="2.52745094580617"><ele>54.0</ele><time>2026-04-07T14:53:40.001Z</time></trkpt><trkpt lat="49.19107630641334" lon="2.5273320865944333"><ele>54.0</ele><time>2026-04-07T14:53:42.001Z</time></trkpt><trkpt lat="49.191079746956916" lon="2.527207291948431"><ele>54.0</ele><time>2026-04-07T14:53:44.001Z</time></trkpt><trkpt lat="49.19107515256738" lon="2.5270891708129524"><ele>54.166666666666664</ele><time>2026-04-07T14:53:46.001Z</time></trkpt><trkpt lat="49.191070791393855" lon="2.5269770456976364"><ele>54.33333333333333</ele><time>2026-04-07T14:53:48.001Z</time></trkpt><trkpt lat="49.19106613273146" lon="2.52685727223287"><ele>54.5</ele><time>2026-04-07T14:53:50.001Z</time></trkpt><trkpt lat="49.19104273810646" lon="2.5267349241701904"><ele>54.666666666666664</ele><time>2026-04-07T14:53:52.001Z</time></trkpt><trkpt lat="49.19104614750478" lon="2.526622460629877"><ele>54.83333333333333</ele><time>2026-04-07T14:53:54.001Z</time></trkpt><trkpt lat="49.191046739043706" lon="2.526513027117501"><ele>55.0</ele><time>2026-04-07T14:53:56.001Z</time></trkpt><trkpt lat="49.191032070808426" lon="2.526395291215213"><ele>54.99999999999999</ele><time>2026-04-07T14:53:58.001Z</time></trkpt><trkpt lat="49.19103195111572" lon="2.526296067099166"><ele>55.0</ele><time>2026-04-07T14:54:00.001Z</time></trkpt><trkpt lat="49.1910243059979" lon="2.526185847685774"><ele>55.0</ele><time>2026-04-07T14:54:02.001Z</time></trkpt><trkpt lat="49.19102359575206" lon="2.5260331143326535"><ele>55.0</ele><time>2026-04-07T14:54:05Z</time></trkpt><trkpt lat="49.19101673862831" lon="2.525923181854946"><ele>54.99999999999999</ele><time>2026-04-07T14:54:07Z</time></trkpt><trkpt lat="49.19100916533077" lon="2.525801767849373"><ele>55.0</ele><time>2026-04-07T14:54:09Z</time></trkpt><trkpt lat="49.19099168019016" lon="2.525675727568678"><ele>54.666666666666664</ele><time>2026-04-07T14:54:11Z</time></trkpt><trkpt lat="49.190989595735076" lon="2.5255454493006333"><ele>54.33333333333333</ele><time>2026-04-07T14:54:13Z</time></trkpt><trkpt lat="49.190969923741754" lon="2.5254117969934944"><ele>54.0</ele><time>2026-04-07T14:54:15Z</time></trkpt><trkpt lat="49.190964037559404" lon="2.525273856445479"><ele>53.66666666666667</ele><time>2026-04-07T14:54:17Z</time></trkpt><trkpt lat="49.19096755787818" lon="2.5251347229343195"><ele>53.333333333333336</ele><time>2026-04-07T14:54:19Z</time></trkpt><trkpt lat="49.19094752228811" lon="2.5250056056291954"><ele>53.0</ele><time>2026-04-07T14:54:21Z</time></trkpt><trkpt lat="49.19093347836605" lon="2.524855861036347"><ele>53.0</ele><time>2026-04-07T14:54:23Z</time></trkpt><trkpt lat="49.19093164387327" lon="2.5247170132375016"><ele>53.0</ele><time>2026-04-07T14:54:25Z</time></trkpt><trkpt lat="49.19091641538316" lon="2.5245774018205944"><ele>53.0</ele><time>2026-04-07T14:54:27Z</time></trkpt><trkpt lat="49.190905476606645" lon="2.5244326923298526"><ele>53.0</ele><time>2026-04-07T14:54:29Z</time></trkpt><trkpt lat="49.190898221179594" lon="2.5242944368636127"><ele>53.0</ele><time>2026-04-07T14:54:31Z</time></trkpt><trkpt lat="49.1908893442417" lon="2.524151986846629"><ele>53.0</ele><time>2026-04-07T14:54:33Z</time></trkpt><trkpt lat="49.190877672187376" lon="2.5239692353003194"><ele>53.0</ele><time>2026-04-07T14:54:35Z</time></trkpt><trkpt lat="49.190868774696675" lon="2.523833657406239"><ele>53.0</ele><time>2026-04-07T14:54:38Z</time></trkpt><trkpt lat="49.19086078499392" lon="2.5237032926232423"><ele>53.0</ele><time>2026-04-07T14:54:40Z</time></trkpt><trkpt lat="49.190848417606524" lon="2.5235688323302337"><ele>53.0</ele><time>2026-04-07T14:54:41.999Z</time></trkpt><trkpt lat="49.19084974032841" lon="2.523435272109716"><ele>53.0</ele><time>2026-04-07T14:54:43.999Z</time></trkpt><trkpt lat="49.190835425685655" lon="2.5233000660889804"><ele>53.0</ele><time>2026-04-07T14:54:45.999Z</time></trkpt><trkpt lat="49.190821416553064" lon="2.5231677456437582"><ele>53.0</ele><time>2026-04-07T14:54:47.999Z</time></trkpt><trkpt lat="49.19079137503271" lon="2.523040316279377"><ele>53.0</ele><time>2026-04-07T14:54:49.999Z</time></trkpt><trkpt lat="49.19079090459669" lon="2.5228918996098435"><ele>53.0</ele><time>2026-04-07T14:54:51.999Z</time></trkpt><trkpt lat="49.190772846095044" lon="2.5227479464254947"><ele>52.8</ele><time>2026-04-07T14:54:53.999Z</time></trkpt><trkpt lat="49.19074238604493" lon="2.5226133921871345"><ele>52.599999999999994</ele><time>2026-04-07T14:54:55.999Z</time></trkpt><trkpt lat="49.190735269913965" lon="2.5224475615635567"><ele>52.400000000000006</ele><time>2026-04-07T14:54:57.999Z</time></trkpt><trkpt lat="49.190705024982776" lon="2.522304914869883"><ele>52.2</ele><time>2026-04-07T14:54:59.999Z</time></trkpt><trkpt lat="49.1907008126481" lon="2.5221495161941574"><ele>52.0</ele><time>2026-04-07T14:55:01.999Z</time></trkpt><trkpt lat="49.19068661802012" lon="2.5219939621822096"><ele>52.2</ele><time>2026-04-07T14:55:03.999Z</time></trkpt><trkpt lat="49.190657511984305" lon="2.521855983493506"><ele>52.400000000000006</ele><time>2026-04-07T14:55:05.999Z</time></trkpt><trkpt lat="49.19066188027454" lon="2.521722869879302"><ele>52.599999999999994</ele><time>2026-04-07T14:55:07.999Z</time></trkpt><trkpt lat="49.1906499379128" lon="2.521591997907964"><ele>52.8</ele><time>2026-04-07T14:55:09.999Z</time></trkpt><trkpt lat="49.190621619732426" lon="2.521461034155835"><ele>53.0</ele><time>2026-04-07T14:55:11.999Z</time></trkpt><trkpt lat="49.190612770446144" lon="2.521313363723714"><ele>52.833333333333336</ele><time>2026-04-07T14:55:13.999Z</time></trkpt><trkpt lat="49.19060559660058" lon="2.521174296756454"><ele>52.66666666666667</ele><time>2026-04-07T14:55:15.999Z</time></trkpt><trkpt lat="49.19059551909881" lon="2.521039443483183"><ele>52.5</ele><time>2026-04-07T14:55:17.999Z</time></trkpt><trkpt lat="49.19058431413498" lon="2.5208991892682753"><ele>52.33333333333333</ele><time>2026-04-07T14:55:19.999Z</time></trkpt><trkpt lat="49.1905776204319" lon="2.520762316790581"><ele>52.166666666666664</ele><time>2026-04-07T14:55:21.999Z</time></trkpt><trkpt lat="49.19056945063141" lon="2.5206291991200884"><ele>52.0</ele><time>2026-04-07T14:55:23.999Z</time></trkpt><trkpt lat="49.190559915969104" lon="2.5205038388478327"><ele>52.166666666666664</ele><time>2026-04-07T14:55:25.998Z</time></trkpt><trkpt lat="49.1905660132145" lon="2.5203717955659175"><ele>52.33333333333333</ele><time>2026-04-07T14:55:27.998Z</time></trkpt><trkpt lat="49.19056056148866" lon="2.5202387295170006"><ele>52.5</ele><time>2026-04-07T14:55:29.998Z</time></trkpt><trkpt lat="49.190555158165246" lon="2.5201068446525436"><ele>52.66666666666667</ele><time>2026-04-07T14:55:31.998Z</time></trkpt><trkpt lat="49.19054992194573" lon="2.5199790383852005"><ele>52.833333333333336</ele><time>2026-04-07T14:55:33.998Z</time></trkpt><trkpt lat="49.19054490422558" lon="2.519856565596107"><ele>53.0</ele><time>2026-04-07T14:55:35.998Z</time></trkpt><trkpt lat="49.19054261274905" lon="2.5197357586635896"><ele>53.00000000000001</ele><time>2026-04-07T14:55:37.998Z</time></trkpt><trkpt lat="49.190542385489266" lon="2.519607736695154"><ele>53.0</ele><time>2026-04-07T14:55:40.001Z</time></trkpt><trkpt lat="49.1905421881125" lon="2.5194965472678"><ele>53.0</ele><time>2026-04-07T14:55:42.001Z</time></trkpt><trkpt lat="49.1905419486742" lon="2.519361663537082"><ele>53.0</ele><time>2026-04-07T14:55:44.001Z</time></trkpt><trkpt lat="49.19054280345831" lon="2.5192471538737835"><ele>53.00000000000001</ele><time>2026-04-07T14:55:46.001Z</time></trkpt><trkpt lat="49.1905452351499" lon="2.519120121651143"><ele>53.0</ele><time>2026-04-07T14:55:48.001Z</time></trkpt><trkpt lat="49.19054764816804" lon="2.518994064943833"><ele>53.00000000000001</ele><time>2026-04-07T14:55:50.001Z</time></trkpt><trkpt lat="49.1905500837901" lon="2.518866827516783"><ele>53.0</ele><time>2026-04-07T14:55:52.001Z</time></trkpt><trkpt lat="49.19055243771284" lon="2.518743858027174"><ele>53.0</ele><time>2026-04-07T14:55:54.001Z</time></trkpt><trkpt lat="49.19055483648714" lon="2.5186185453535077"><ele>53.0</ele><time>2026-04-07T14:55:56.001Z</time></trkpt><trkpt lat="49.190551205706676" lon="2.5184844253219105"><ele>53.00000000000001</ele><time>2026-04-07T14:55:58.001Z</time></trkpt><trkpt lat="49.19055992174675" lon="2.5183633374699923"><ele>53.0</ele><time>2026-04-07T14:56:00.001Z</time></trkpt><trkpt lat="49.19055777958588" lon="2.5182474916354067"><ele>53.16666666666667</ele><time>2026-04-07T14:56:02.001Z</time></trkpt><trkpt lat="49.19057432559357" lon="2.518119754098681"><ele>53.333333333333336</ele><time>2026-04-07T14:56:04.001Z</time></trkpt><trkpt lat="49.19056687517438" lon="2.5179896412775817"><ele>53.5</ele><time>2026-04-07T14:56:06.001Z</time></trkpt><trkpt lat="49.19056920674756" lon="2.517867839345124"><ele>53.66666666666667</ele><time>2026-04-07T14:56:08.001Z</time></trkpt><trkpt lat="49.19056477126237" lon="2.517735337538059"><ele>53.833333333333336</ele><time>2026-04-07T14:56:10Z</time></trkpt><trkpt lat="49.190563902085785" lon="2.5176052207463244"><ele>54.0</ele><time>2026-04-07T14:56:12Z</time></trkpt><trkpt lat="49.190564926270945" lon="2.5174793592944025"><ele>54.333333333333336</ele><time>2026-04-07T14:56:14Z</time></trkpt><trkpt lat="49.190575485762274" lon="2.5173547440502317"><ele>54.66666666666667</ele><time>2026-04-07T14:56:16Z</time></trkpt><trkpt lat="49.19057568354103" lon="2.5172403834882933"><ele>55.0</ele><time>2026-04-07T14:56:18Z</time></trkpt><trkpt lat="49.19057586453314" lon="2.5171357302489543"><ele>55.333333333333336</ele><time>2026-04-07T14:56:20Z</time></trkpt><trkpt lat="49.190559830132976" lon="2.5170286294922057"><ele>55.66666666666667</ele><time>2026-04-07T14:56:22Z</time></trkpt><trkpt lat="49.1905646154219" lon="2.516928121459325"><ele>56.0</ele><time>2026-04-07T14:56:24Z</time></trkpt><trkpt lat="49.19056979294552" lon="2.5167845333727312"><ele>56.14285714285714</ele><time>2026-04-07T14:56:27Z</time></trkpt><trkpt lat="49.19057851003808" lon="2.516671438607118"><ele>56.285714285714285</ele><time>2026-04-07T14:56:29Z</time></trkpt><trkpt lat="49.19057930594642" lon="2.516553734633728"><ele>56.42857142857143</ele><time>2026-04-07T14:56:31Z</time></trkpt><trkpt lat="49.190580054758954" lon="2.5164429953197187"><ele>56.57142857142857</ele><time>2026-04-07T14:56:33Z</time></trkpt><trkpt lat="49.19058079820403" lon="2.5163330501635905"><ele>56.71428571428571</ele><time>2026-04-07T14:56:35Z</time></trkpt><trkpt lat="49.19058153830717" lon="2.5162235992420423"><ele>56.857142857142854</ele><time>2026-04-07T14:56:37Z</time></trkpt><trkpt lat="49.19058220609733" lon="2.5161248423577214"><ele>57.0</ele><time>2026-04-07T14:56:39Z</time></trkpt><trkpt lat="49.19058286070375" lon="2.5160280351220363"><ele>57.0</ele><time>2026-04-07T14:56:41Z</time></trkpt><trkpt lat="49.19056995122463" lon="2.5159099632526862"><ele>57.0</ele><time>2026-04-07T14:56:43Z</time></trkpt><trkpt lat="49.19058393453138" lon="2.5158024732844217"><ele>57.0</ele><time>2026-04-07T14:56:44.999Z</time></trkpt><trkpt lat="49.19057148300172" lon="2.5156793237505077"><ele>57.0</ele><time>2026-04-07T14:56:46.999Z</time></trkpt><trkpt lat="49.19057271510416" lon="2.515559801790199"><ele>57.0</ele><time>2026-04-07T14:56:48.999Z</time></trkpt><trkpt lat="49.19057328942623" lon="2.5154381078515735"><ele>57.0</ele><time>2026-04-07T14:56:50.999Z</time></trkpt><trkpt lat="49.19058679808686" lon="2.515316878651748"><ele>57.0</ele><time>2026-04-07T14:56:52.999Z</time></trkpt><trkpt lat="49.1905875350653" lon="2.5151975024189075"><ele>57.0</ele><time>2026-04-07T14:56:54.999Z</time></trkpt><trkpt lat="49.1905882990724" lon="2.5150737479679663"><ele>57.0</ele><time>2026-04-07T14:56:56.999Z</time></trkpt><trkpt lat="49.190573234981564" lon="2.514943994957249"><ele>57.0</ele><time>2026-04-07T14:56:58.999Z</time></trkpt><trkpt lat="49.190591449941586" lon="2.514818693260203"><ele>57.0</ele><time>2026-04-07T14:57:00.999Z</time></trkpt><trkpt lat="49.19058669453283" lon="2.5147007598622766"><ele>57.0</ele><time>2026-04-07T14:57:02.999Z</time></trkpt><trkpt lat="49.19058039285536" lon="2.514577686363238"><ele>57.0</ele><time>2026-04-07T14:57:04.999Z</time></trkpt><trkpt lat="49.19058533327852" lon="2.514437837150636"><ele>57.0</ele><time>2026-04-07T14:57:06.999Z</time></trkpt><trkpt lat="49.190589997332935" lon="2.51430177477393"><ele>57.0</ele><time>2026-04-07T14:57:08.999Z</time></trkpt><trkpt lat="49.19060740949938" lon="2.5141620761919796"><ele>57.0</ele><time>2026-04-07T14:57:10.999Z</time></trkpt><trkpt lat="49.19061274813479" lon="2.5140162455795774"><ele>57.0</ele><time>2026-04-07T14:57:12.999Z</time></trkpt><trkpt lat="49.19061804473924" lon="2.513879577190445"><ele>57.0</ele><time>2026-04-07T14:57:14.999Z</time></trkpt><trkpt lat="49.1906236788175" lon="2.513747440276498"><ele>57.0</ele><time>2026-04-07T14:57:16.999Z</time></trkpt><trkpt lat="49.19061557007416" lon="2.5136025715160364"><ele>57.0</ele><time>2026-04-07T14:57:18.999Z</time></trkpt><trkpt lat="49.19062796457494" lon="2.51346190144022"><ele>57.0</ele><time>2026-04-07T14:57:20.999Z</time></trkpt><trkpt lat="49.19063907082005" lon="2.513304032559676"><ele>57.0</ele><time>2026-04-07T14:57:22.999Z</time></trkpt><trkpt lat="49.190639859480235" lon="2.5131567613615267"><ele>57.0</ele><time>2026-04-07T14:57:24.998Z</time></trkpt><trkpt lat="49.19064701030559" lon="2.5130277677335218"><ele>57.0</ele><time>2026-04-07T14:57:26.998Z</time></trkpt><trkpt lat="49.19065857007903" lon="2.5128560789746985"><ele>57.0</ele><time>2026-04-07T14:57:28.998Z</time></trkpt><trkpt lat="49.19066229343923" lon="2.5126990137645375"><ele>57.0</ele><time>2026-04-07T14:57:30.998Z</time></trkpt><trkpt lat="49.1906459326588" lon="2.5125598832870333"><ele>57.0</ele><time>2026-04-07T14:57:32.998Z</time></trkpt><trkpt lat="49.19069968129555" lon="2.5124278839476237"><ele>57.0</ele><time>2026-04-07T14:57:34.998Z</time></trkpt><trkpt lat="49.19075752118341" lon="2.512312892350985"><ele>57.0</ele><time>2026-04-07T14:57:36.998Z</time></trkpt><trkpt lat="49.190801810132214" lon="2.5121592432783455"><ele>57.0</ele><time>2026-04-07T14:57:38.998Z</time></trkpt><trkpt lat="49.19085191198847" lon="2.512013283420515"><ele>57.0</ele><time>2026-04-07T14:57:40.998Z</time></trkpt><trkpt lat="49.19089351061003" lon="2.51185986897026"><ele>57.0</ele><time>2026-04-07T14:57:42.998Z</time></trkpt><trkpt lat="49.19091709949948" lon="2.511699077445244"><ele>56.75</ele><time>2026-04-07T14:57:45.001Z</time></trkpt><trkpt lat="49.1909695980185" lon="2.51155209632655"><ele>56.5</ele><time>2026-04-07T14:57:47.001Z</time></trkpt><trkpt lat="49.191017842684865" lon="2.5113921213420616"><ele>56.25</ele><time>2026-04-07T14:57:49.001Z</time></trkpt><trkpt lat="49.19106035309443" lon="2.511233384194833"><ele>56.0</ele><time>2026-04-07T14:57:51.001Z</time></trkpt><trkpt lat="49.19109711171385" lon="2.511068540661209"><ele>56.0</ele><time>2026-04-07T14:57:53.001Z</time></trkpt><trkpt lat="49.19113840037865" lon="2.510903137082552"><ele>56.0</ele><time>2026-04-07T14:57:55.001Z</time></trkpt><trkpt lat="49.191175814497825" lon="2.510734298135881"><ele>56.0</ele><time>2026-04-07T14:57:57.001Z</time></trkpt><trkpt lat="49.19122760159108" lon="2.5105681033473126"><ele>56.0</ele><time>2026-04-07T14:57:59.001Z</time></trkpt><trkpt lat="49.19125742894936" lon="2.510397856980918"><ele>55.599999999999994</ele><time>2026-04-07T14:58:01.001Z</time></trkpt><trkpt lat="49.191299095021165" lon="2.510230749831124"><ele>55.199999999999996</ele><time>2026-04-07T14:58:03.001Z</time></trkpt><trkpt lat="49.19135357725449" lon="2.51008842135961"><ele>54.800000000000004</ele><time>2026-04-07T14:58:05.001Z</time></trkpt><trkpt lat="49.19137872673769" lon="2.5099992234407456"><ele>54.400000000000006</ele><time>2026-04-07T14:58:06.001Z</time></trkpt><trkpt lat="49.191416558235396" lon="2.5098522022635597"><ele>54.0</ele><time>2026-04-07T14:58:08.001Z</time></trkpt><trkpt lat="49.19143177956068" lon="2.5097511738487497"><ele>54.0</ele><time>2026-04-07T14:58:09.001Z</time></trkpt><trkpt lat="49.19146480412103" lon="2.509593931659718"><ele>54.0</ele><time>2026-04-07T14:58:11Z</time></trkpt><trkpt lat="49.191505427048334" lon="2.5094365241977754"><ele>54.0</ele><time>2026-04-07T14:58:13Z</time></trkpt><trkpt lat="49.19154463834684" lon="2.509267982901851"><ele>54.0</ele><time>2026-04-07T14:58:15Z</time></trkpt><trkpt lat="49.191595291288145" lon="2.509107255470146"><ele>53.5</ele><time>2026-04-07T14:58:17Z</time></trkpt><trkpt lat="49.191622408758406" lon="2.5089414391920255"><ele>53.0</ele><time>2026-04-07T14:58:19Z</time></trkpt><trkpt lat="49.1916420372201" lon="2.5088471913852493"><ele>52.5</ele><time>2026-04-07T14:58:20Z</time></trkpt><trkpt lat="49.19167746386155" lon="2.508766990859008"><ele>52.0</ele><time>2026-04-07T14:58:21Z</time></trkpt><trkpt lat="49.191719254092504" lon="2.508594488941826"><ele>51.5</ele><time>2026-04-07T14:58:23Z</time></trkpt><trkpt lat="49.19174008252529" lon="2.5084941130298026"><ele>51.0</ele><time>2026-04-07T14:58:24Z</time></trkpt><trkpt lat="49.19177906537062" lon="2.508310465399286"><ele>51.0</ele><time>2026-04-07T14:58:26Z</time></trkpt><trkpt lat="49.19180459565559" lon="2.508219268819424"><ele>51.0</ele><time>2026-04-07T14:58:27Z</time></trkpt><trkpt lat="49.19183639348237" lon="2.508128165919634"><ele>51.0</ele><time>2026-04-07T14:58:28Z</time></trkpt><trkpt lat="49.19185963055736" lon="2.508024579596959"><ele>51.0</ele><time>2026-04-07T14:58:29Z</time></trkpt><trkpt lat="49.191878321306554" lon="2.5079073424983083"><ele>51.0</ele><time>2026-04-07T14:58:30Z</time></trkpt><trkpt lat="49.19191888119469" lon="2.507735651116192"><ele>51.0</ele><time>2026-04-07T14:58:32Z</time></trkpt><trkpt lat="49.191940066974965" lon="2.5076343281349702"><ele>51.199999999999996</ele><time>2026-04-07T14:58:33Z</time></trkpt><trkpt lat="49.191974750178446" lon="2.507551058434645"><ele>51.4</ele><time>2026-04-07T14:58:34Z</time></trkpt><trkpt lat="49.19201585304788" lon="2.5073766391722523"><ele>51.6</ele><time>2026-04-07T14:58:36Z</time></trkpt><trkpt lat="49.192054944389575" lon="2.5072010032177436"><ele>51.8</ele><time>2026-04-07T14:58:38Z</time></trkpt><trkpt lat="49.19211380496705" lon="2.5070313961710045"><ele>52.0</ele><time>2026-04-07T14:58:40Z</time></trkpt><trkpt lat="49.19211364697422" lon="2.50692778195328"><ele>52.666666666666664</ele><time>2026-04-07T14:58:41Z</time></trkpt><trkpt lat="49.19211386137557" lon="2.5067713460265724"><ele>53.33333333333333</ele><time>2026-04-07T14:58:42.999Z</time></trkpt><trkpt lat="49.19211747395141" lon="2.506666745641028"><ele>54.0</ele><time>2026-04-07T14:58:44.999Z</time></trkpt><trkpt lat="49.19212120715808" lon="2.506558652297038"><ele>54.66666666666667</ele><time>2026-04-07T14:58:46.999Z</time></trkpt><trkpt lat="49.19212721127695" lon="2.5064363628877686"><ele>55.333333333333336</ele><time>2026-04-07T14:58:48.999Z</time></trkpt><trkpt lat="49.19213342186357" lon="2.506311651176734"><ele>56.0</ele><time>2026-04-07T14:58:50.999Z</time></trkpt><trkpt lat="49.192139235290135" lon="2.5061949154919345"><ele>57.0</ele><time>2026-04-07T14:58:52.999Z</time></trkpt><trkpt lat="49.19172108818441" lon="2.506021980799061"><ele>58.0</ele><time>2026-04-07T14:58:54.999Z</time></trkpt><trkpt lat="49.19166059346369" lon="2.505904479016603"><ele>58.0</ele><time>2026-04-07T14:58:56.999Z</time></trkpt><trkpt lat="49.19161300584116" lon="2.5057766159755634"><ele>58.0</ele><time>2026-04-07T14:58:58.999Z</time></trkpt><trkpt lat="49.19155151234778" lon="2.5056070698883697"><ele>58.0</ele><time>2026-04-07T14:59:00.999Z</time></trkpt><trkpt lat="49.19151840844398" lon="2.505516854474006"><ele>58.0</ele><time>2026-04-07T14:59:01.999Z</time></trkpt><trkpt lat="49.19146315308568" lon="2.5054325143518454"><ele>58.0</ele><time>2026-04-07T14:59:03.999Z</time></trkpt><trkpt lat="49.191397281339036" lon="2.505309750916024"><ele>58.599999999999994</ele><time>2026-04-07T14:59:05.999Z</time></trkpt><trkpt lat="49.191325156274395" lon="2.505194822256986"><ele>59.199999999999996</ele><time>2026-04-07T14:59:07.999Z</time></trkpt><trkpt lat="49.19127571728305" lon="2.505052756526505"><ele>59.8</ele><time>2026-04-07T14:59:09.999Z</time></trkpt><trkpt lat="49.19121680824349" lon="2.5049175946844975"><ele>60.4</ele><time>2026-04-07T14:59:11.999Z</time></trkpt><trkpt lat="49.191161663220974" lon="2.5047897750638195"><ele>61.0</ele><time>2026-04-07T14:59:13.999Z</time></trkpt><trkpt lat="49.19111829389525" lon="2.5046657301879924"><ele>60.83333333333333</ele><time>2026-04-07T14:59:15.999Z</time></trkpt><trkpt lat="49.19107230017199" lon="2.504552680233009"><ele>60.666666666666664</ele><time>2026-04-07T14:59:17.998Z</time></trkpt><trkpt lat="49.1910213656029" lon="2.5044353172136535"><ele>60.5</ele><time>2026-04-07T14:59:19.998Z</time></trkpt><trkpt lat="49.19097249839662" lon="2.5043185319107084"><ele>60.33333333333333</ele><time>2026-04-07T14:59:21.998Z</time></trkpt><trkpt lat="49.19092472167058" lon="2.5041979710460236"><ele>60.166666666666664</ele><time>2026-04-07T14:59:23.998Z</time></trkpt><trkpt lat="49.190878982186376" lon="2.504108401531974"><ele>60.0</ele><time>2026-04-07T14:59:25.998Z</time></trkpt><trkpt lat="49.190846282237196" lon="2.5040035915351515"><ele>60.0</ele><time>2026-04-07T14:59:27.998Z</time></trkpt><trkpt lat="49.190794431550415" lon="2.5038979495722646"><ele>60.0</ele><time>2026-04-07T14:59:29.998Z</time></trkpt><trkpt lat="49.19074938801607" lon="2.5037737504204465"><ele>60.0</ele><time>2026-04-07T14:59:31.998Z</time></trkpt><trkpt lat="49.19069417675518" lon="2.5036636329225814"><ele>60.0</ele><time>2026-04-07T14:59:33.998Z</time></trkpt><trkpt lat="49.190673555269264" lon="2.503551405258038"><ele>60.0</ele><time>2026-04-07T14:59:35.998Z</time></trkpt><trkpt lat="49.19062477355212" lon="2.503443334320514"><ele>60.0</ele><time>2026-04-07T14:59:37.998Z</time></trkpt><trkpt lat="49.190574322933145" lon="2.5033347364216376"><ele>60.166666666666664</ele><time>2026-04-07T14:59:39.998Z</time></trkpt><trkpt lat="49.19054468503335" lon="2.503213034814906"><ele>60.33333333333333</ele><time>2026-04-07T14:59:41.998Z</time></trkpt><trkpt lat="49.19052108089175" lon="2.5030963280641423"><ele>60.5</ele><time>2026-04-07T14:59:43.998Z</time></trkpt><trkpt lat="49.190489829718324" lon="2.5029600441584976"><ele>60.666666666666664</ele><time>2026-04-07T14:59:45.998Z</time></trkpt><trkpt lat="49.190463637300034" lon="2.502844488861077"><ele>60.83333333333333</ele><time>2026-04-07T14:59:47.998Z</time></trkpt><trkpt lat="49.19043486853938" lon="2.5027236725079627"><ele>61.0</ele><time>2026-04-07T14:59:49.998Z</time></trkpt><trkpt lat="49.19041049659282" lon="2.5026001784615173"><ele>61.199999999999996</ele><time>2026-04-07T14:59:52.001Z</time></trkpt><trkpt lat="49.19038249447941" lon="2.502474459773997"><ele>61.39999999999999</ele><time>2026-04-07T14:59:54.001Z</time></trkpt><trkpt lat="49.19035238346905" lon="2.502349398828453"><ele>61.6</ele><time>2026-04-07T14:59:56.001Z</time></trkpt><trkpt lat="49.19032405456926" lon="2.50221485579633"><ele>61.8</ele><time>2026-04-07T14:59:58.001Z</time></trkpt><trkpt lat="49.190296822136006" lon="2.502076644995581"><ele>62.0</ele><time>2026-04-07T15:00:00.001Z</time></trkpt><trkpt lat="49.19026077105023" lon="2.5019400490069725"><ele>62.333333333333336</ele><time>2026-04-07T15:00:02.001Z</time></trkpt><trkpt lat="49.190239293267524" lon="2.5018075405350704"><ele>62.66666666666667</ele><time>2026-04-07T15:00:04.001Z</time></trkpt><trkpt lat="49.190205908027906" lon="2.501683148455627"><ele>63.0</ele><time>2026-04-07T15:00:06.001Z</time></trkpt><trkpt lat="49.1901787292026" lon="2.501551597957301"><ele>63.33333333333333</ele><time>2026-04-07T15:00:08.001Z</time></trkpt><trkpt lat="49.1901472163861" lon="2.5014192946919263"><ele>63.666666666666664</ele><time>2026-04-07T15:00:10.001Z</time></trkpt><trkpt lat="49.190124818593866" lon="2.501300812560645"><ele>64.0</ele><time>2026-04-07T15:00:12.001Z</time></trkpt><trkpt lat="49.190094839840285" lon="2.5011570757520785"><ele>64.0</ele><time>2026-04-07T15:00:14Z</time></trkpt><trkpt lat="49.19006442403159" lon="2.501035647709732"><ele>64.0</ele><time>2026-04-07T15:00:16Z</time></trkpt><trkpt lat="49.190021345186246" lon="2.5009087008134183"><ele>64.0</ele><time>2026-04-07T15:00:18Z</time></trkpt><trkpt lat="49.18998663972943" lon="2.500778112153328"><ele>64.0</ele><time>2026-04-07T15:00:20Z</time></trkpt><trkpt lat="49.18997444170815" lon="2.5006329119186606"><ele>64.0</ele><time>2026-04-07T15:00:22Z</time></trkpt><trkpt lat="49.189953569566676" lon="2.5004977518094833"><ele>63.800000000000004</ele><time>2026-04-07T15:00:24Z</time></trkpt><trkpt lat="49.18992368189497" lon="2.500357106481154"><ele>63.60000000000001</ele><time>2026-04-07T15:00:26Z</time></trkpt><trkpt lat="49.18989666423016" lon="2.5002194584464923"><ele>63.4</ele><time>2026-04-07T15:00:28Z</time></trkpt><trkpt lat="49.189864847234894" lon="2.500077400160646"><ele>63.2</ele><time>2026-04-07T15:00:30Z</time></trkpt><trkpt lat="49.18983718015504" lon="2.499931518260481"><ele>63.0</ele><time>2026-04-07T15:00:32Z</time></trkpt><trkpt lat="49.18980583990266" lon="2.499786974908455"><ele>62.599999999999994</ele><time>2026-04-07T15:00:34Z</time></trkpt><trkpt lat="49.18977637736423" lon="2.4996389632021954"><ele>62.199999999999996</ele><time>2026-04-07T15:00:36Z</time></trkpt><trkpt lat="49.189742275843194" lon="2.499496532427599"><ele>61.8</ele><time>2026-04-07T15:00:38Z</time></trkpt><trkpt lat="49.189703997644216" lon="2.499339901761164"><ele>61.4</ele><time>2026-04-07T15:00:40Z</time></trkpt><trkpt lat="49.18968249911797" lon="2.4991810188524664"><ele>61.0</ele><time>2026-04-07T15:00:41.999Z</time></trkpt><trkpt lat="49.189650898033356" lon="2.4990311666021054"><ele>61.0</ele><time>2026-04-07T15:00:43.999Z</time></trkpt><trkpt lat="49.18961347108813" lon="2.4988683021847575"><ele>60.99999999999999</ele><time>2026-04-07T15:00:45.999Z</time></trkpt><trkpt lat="49.189577629689374" lon="2.4987062321937334"><ele>60.99999999999999</ele><time>2026-04-07T15:00:47.999Z</time></trkpt><trkpt lat="49.189542887377065" lon="2.498553230414958"><ele>61.0</ele><time>2026-04-07T15:00:49.999Z</time></trkpt><trkpt lat="49.18950944128907" lon="2.4983967472044517"><ele>61.0</ele><time>2026-04-07T15:00:51.999Z</time></trkpt><trkpt lat="49.18948269803766" lon="2.4982391435888234"><ele>61.199999999999996</ele><time>2026-04-07T15:00:53.999Z</time></trkpt><trkpt lat="49.189447995833795" lon="2.4980888085075006"><ele>61.39999999999999</ele><time>2026-04-07T15:00:55.999Z</time></trkpt><trkpt lat="49.18941774353508" lon="2.4979407101989524"><ele>61.6</ele><time>2026-04-07T15:00:57.999Z</time></trkpt><trkpt lat="49.1893977415708" lon="2.4978081070141487"><ele>61.8</ele><time>2026-04-07T15:00:59.999Z</time></trkpt><trkpt lat="49.189350099730525" lon="2.497656507342391"><ele>62.0</ele><time>2026-04-07T15:01:01.999Z</time></trkpt><trkpt lat="49.18934373976572" lon="2.4974951945223443"><ele>61.8</ele><time>2026-04-07T15:01:03.999Z</time></trkpt><trkpt lat="49.18935686595906" lon="2.4973280536131486"><ele>61.6</ele><time>2026-04-07T15:01:05.999Z</time></trkpt><trkpt lat="49.18936586763745" lon="2.4971713536566438"><ele>61.39999999999999</ele><time>2026-04-07T15:01:07.999Z</time></trkpt><trkpt lat="49.18937118318672" lon="2.497008359852286"><ele>61.199999999999996</ele><time>2026-04-07T15:01:09.999Z</time></trkpt><trkpt lat="49.189376511988534" lon="2.4968443084455125"><ele>61.0</ele><time>2026-04-07T15:01:11.999Z</time></trkpt><trkpt lat="49.18938641454536" lon="2.4966830201457015"><ele>61.0</ele><time>2026-04-07T15:01:13.999Z</time></trkpt><trkpt lat="49.18939182907695" lon="2.4965176468154104"><ele>60.99999999999999</ele><time>2026-04-07T15:01:15.999Z</time></trkpt><trkpt lat="49.18940425739415" lon="2.4963592044193716"><ele>60.99999999999999</ele><time>2026-04-07T15:01:17.998Z</time></trkpt><trkpt lat="49.189412071589345" lon="2.496203684753089"><ele>61.0</ele><time>2026-04-07T15:01:19.998Z</time></trkpt><trkpt lat="49.1894283303061" lon="2.4960536063078647"><ele>61.0</ele><time>2026-04-07T15:01:21.998Z</time></trkpt><trkpt lat="49.1894297091708" lon="2.495886719893404"><ele>60.8</ele><time>2026-04-07T15:01:23.998Z</time></trkpt><trkpt lat="49.189436977660506" lon="2.495733689076329"><ele>60.599999999999994</ele><time>2026-04-07T15:01:25.998Z</time></trkpt><trkpt lat="49.18944049321714" lon="2.495584616018447"><ele>60.4</ele><time>2026-04-07T15:01:27.998Z</time></trkpt><trkpt lat="49.18944603027141" lon="2.4954238588507134"><ele>60.2</ele><time>2026-04-07T15:01:29.998Z</time></trkpt><trkpt lat="49.189462359055106" lon="2.4952697408237556"><ele>60.0</ele><time>2026-04-07T15:01:31.998Z</time></trkpt><trkpt lat="49.18946578453977" lon="2.4951048706757297"><ele>60.0</ele><time>2026-04-07T15:01:33.998Z</time></trkpt><trkpt lat="49.189474704071806" lon="2.4949457098658097"><ele>60.0</ele><time>2026-04-07T15:01:35.998Z</time></trkpt><trkpt lat="49.18948686477149" lon="2.4947908786173527"><ele>60.0</ele><time>2026-04-07T15:01:37.998Z</time></trkpt><trkpt lat="49.18949601678697" lon="2.4946280947443036"><ele>60.0</ele><time>2026-04-07T15:01:39.998Z</time></trkpt><trkpt lat="49.18950283775146" lon="2.4944551948191043"><ele>60.0</ele><time>2026-04-07T15:01:41.998Z</time></trkpt><trkpt lat="49.18951258860018" lon="2.494281777881378"><ele>60.0</ele><time>2026-04-07T15:01:43.998Z</time></trkpt><trkpt lat="49.18952623572315" lon="2.494106220846737"><ele>60.0</ele><time>2026-04-07T15:01:45.998Z</time></trkpt><trkpt lat="49.189525583775556" lon="2.493952260093459"><ele>60.0</ele><time>2026-04-07T15:01:47.998Z</time></trkpt><trkpt lat="49.18950379796598" lon="2.4938594526957867"><ele>60.0</ele><time>2026-04-07T15:01:48.998Z</time></trkpt><trkpt lat="49.18948346871896" lon="2.4937052880190707"><ele>60.0</ele><time>2026-04-07T15:01:50.998Z</time></trkpt><trkpt lat="49.1896126526745" lon="2.4934343082848303"><ele>59.833333333333336</ele><time>2026-04-07T15:01:52.997Z</time></trkpt><trkpt lat="49.189578577027106" lon="2.4933158001258695"><ele>59.66666666666667</ele><time>2026-04-07T15:01:54.997Z</time></trkpt><trkpt lat="49.18955938444085" lon="2.4932192480460182"><ele>59.5</ele><time>2026-04-07T15:01:57.001Z</time></trkpt><trkpt lat="49.18954677299096" lon="2.493086180417585"><ele>59.333333333333336</ele><time>2026-04-07T15:01:59.001Z</time></trkpt><trkpt lat="49.18954513453451" lon="2.4929366558904724"><ele>59.16666666666667</ele><time>2026-04-07T15:02:01.001Z</time></trkpt><trkpt lat="49.18955911889158" lon="2.4928031991775454"><ele>59.0</ele><time>2026-04-07T15:02:03.001Z</time></trkpt><trkpt lat="49.18955942596375" lon="2.4926633644366305"><ele>59.0</ele><time>2026-04-07T15:02:04.001Z</time></trkpt><trkpt lat="49.189548207047004" lon="2.4925549187456943"><ele>59.00000000000001</ele><time>2026-04-07T15:02:05.001Z</time></trkpt><trkpt lat="49.1895239594793" lon="2.492360386056019"><ele>59.00000000000001</ele><time>2026-04-07T15:02:07.001Z</time></trkpt><trkpt lat="49.189501569097054" lon="2.4921807552431443"><ele>59.0</ele><time>2026-04-07T15:02:09.001Z</time></trkpt><trkpt lat="49.18947947253887" lon="2.4920034816696512"><ele>59.0</ele><time>2026-04-07T15:02:11.001Z</time></trkpt><trkpt lat="49.18933074631962" lon="2.4919689549766217"><ele>58.6</ele><time>2026-04-07T15:02:12.001Z</time></trkpt><trkpt lat="49.18933455578213" lon="2.4917880526494094"><ele>58.2</ele><time>2026-04-07T15:02:14Z</time></trkpt><trkpt lat="49.189319981992426" lon="2.4916186296893947"><ele>57.800000000000004</ele><time>2026-04-07T15:02:16Z</time></trkpt><trkpt lat="49.18932262941719" lon="2.4914296010540515"><ele>57.400000000000006</ele><time>2026-04-07T15:02:18Z</time></trkpt><trkpt lat="49.18932449379429" lon="2.491329189043886"><ele>57.0</ele><time>2026-04-07T15:02:19Z</time></trkpt><trkpt lat="49.189317176538815" lon="2.491137502498608"><ele>56.8</ele><time>2026-04-07T15:02:21Z</time></trkpt><trkpt lat="49.189308272510964" lon="2.491036760857361"><ele>56.6</ele><time>2026-04-07T15:02:22Z</time></trkpt><trkpt lat="49.18930559519907" lon="2.4908620997577473"><ele>56.39999999999999</ele><time>2026-04-07T15:02:24Z</time></trkpt><trkpt lat="49.18928117549081" lon="2.4906858116769373"><ele>56.199999999999996</ele><time>2026-04-07T15:02:26Z</time></trkpt><trkpt lat="49.18925106095746" lon="2.49050936619431"><ele>56.0</ele><time>2026-04-07T15:02:28Z</time></trkpt><trkpt lat="49.189239949119155" lon="2.490414331270426"><ele>55.833333333333336</ele><time>2026-04-07T15:02:29Z</time></trkpt><trkpt lat="49.18923687805419" lon="2.49029214386084"><ele>55.66666666666667</ele><time>2026-04-07T15:02:30Z</time></trkpt><trkpt lat="49.18925316188436" lon="2.4901678378441376"><ele>55.5</ele><time>2026-04-07T15:02:31Z</time></trkpt><trkpt lat="49.189273794748516" lon="2.4900384714742123"><ele>55.33333333333333</ele><time>2026-04-07T15:02:32Z</time></trkpt><trkpt lat="49.18930596104031" lon="2.4899125239030586"><ele>55.166666666666664</ele><time>2026-04-07T15:02:33Z</time></trkpt><trkpt lat="49.189341645737095" lon="2.489820232840223"><ele>55.0</ele><time>2026-04-07T15:02:34Z</time></trkpt><trkpt lat="49.18941590007386" lon="2.489610833866768"><ele>54.4</ele><time>2026-04-07T15:02:35Z</time></trkpt><trkpt lat="49.18949830808263" lon="2.4894849567034667"><ele>53.8</ele><time>2026-04-07T15:02:36Z</time></trkpt><trkpt lat="49.18956574703507" lon="2.4893543011264527"><ele>53.2</ele><time>2026-04-07T15:02:37Z</time></trkpt><trkpt lat="49.18963333173947" lon="2.4892351898205347"><ele>52.6</ele><time>2026-04-07T15:02:38Z</time></trkpt><trkpt lat="49.18969999470169" lon="2.489112276989548"><ele>52.0</ele><time>2026-04-07T15:02:39Z</time></trkpt><trkpt lat="49.18975462825791" lon="2.4889984613517857"><ele>52.0</ele><time>2026-04-07T15:02:40Z</time></trkpt><trkpt lat="49.18980599585434" lon="2.4888647368208106"><ele>52.0</ele><time>2026-04-07T15:02:41Z</time></trkpt><trkpt lat="49.18985884750978" lon="2.4887534589780946"><ele>52.0</ele><time>2026-04-07T15:02:41.999Z</time></trkpt><trkpt lat="49.19012726430347" lon="2.488744058519105"><ele>52.666666666666664</ele><time>2026-04-07T15:02:43.999Z</time></trkpt><trkpt lat="49.19016874334069" lon="2.4886567436741225"><ele>53.33333333333333</ele><time>2026-04-07T15:02:44.999Z</time></trkpt><trkpt lat="49.190206559702986" lon="2.4885771389516407"><ele>54.0</ele><time>2026-04-07T15:02:45.999Z</time></trkpt><trkpt lat="49.19027653389058" lon="2.488429950492311"><ele>54.66666666666667</ele><time>2026-04-07T15:02:47.999Z</time></trkpt><trkpt lat="49.19033785700703" lon="2.4882983490391974"><ele>55.333333333333336</ele><time>2026-04-07T15:02:49.999Z</time></trkpt><trkpt lat="49.190374966561315" lon="2.4882154856230225"><ele>56.0</ele><time>2026-04-07T15:02:50.999Z</time></trkpt><trkpt lat="49.190433188506645" lon="2.4880826066509587"><ele>56.00000000000001</ele><time>2026-04-07T15:02:52.999Z</time></trkpt><trkpt lat="49.19047082498268" lon="2.487991928666222"><ele>56.0</ele><time>2026-04-07T15:02:53.999Z</time></trkpt><trkpt lat="49.1905050718145" lon="2.487893868622633"><ele>56.0</ele><time>2026-04-07T15:02:54.999Z</time></trkpt><trkpt lat="49.190531466174576" lon="2.4877895752350763"><ele>56.0</ele><time>2026-04-07T15:02:55.999Z</time></trkpt><trkpt lat="49.19054681536509" lon="2.4876920782647187"><ele>56.00000000000001</ele><time>2026-04-07T15:02:56.999Z</time></trkpt><trkpt lat="49.19057325950953" lon="2.4875594303338278"><ele>56.0</ele><time>2026-04-07T15:02:58.999Z</time></trkpt><trkpt lat="49.190506695967365" lon="2.4873722317193594"><ele>56.5</ele><time>2026-04-07T15:02:59.999Z</time></trkpt><trkpt lat="49.19047292849811" lon="2.487258123671346"><ele>57.0</ele><time>2026-04-07T15:03:01.999Z</time></trkpt><trkpt lat="49.19051713762709" lon="2.48694107664664"><ele>57.5</ele><time>2026-04-07T15:03:05.999Z</time></trkpt><trkpt lat="49.19058089277985" lon="2.486898348651773"><ele>58.0</ele><time>2026-04-07T15:03:07.999Z</time></trkpt><trkpt lat="49.190645558247006" lon="2.4868094990856946"><ele>56.666666666666664</ele><time>2026-04-07T15:03:09.999Z</time></trkpt><trkpt lat="49.19069718266435" lon="2.486734436432728"><ele>55.33333333333333</ele><time>2026-04-07T15:03:11.999Z</time></trkpt><trkpt lat="49.19095960091777" lon="2.4864056701428416"><ele>54.0</ele><time>2026-04-07T15:03:16.998Z</time></trkpt><trkpt lat="49.1909133195812" lon="2.4862219159851304"><ele>54.0</ele><time>2026-04-07T15:03:17.998Z</time></trkpt><trkpt lat="49.190725512744855" lon="2.4866588750561482"><ele>54.0</ele><time>2026-04-07T15:03:18.998Z</time></trkpt><trkpt lat="49.19077623378561" lon="2.4865936018444406"><ele>54.0</ele><time>2026-04-07T15:03:22.998Z</time></trkpt><trkpt lat="49.19082481585736" lon="2.4865042124764174"><ele>54.0</ele><time>2026-04-07T15:03:27.998Z</time></trkpt><trkpt lat="49.19088942497321" lon="2.4863740326996915"><ele>54.0</ele><time>2026-04-07T15:03:30.998Z</time></trkpt><trkpt lat="49.19090913455082" lon="2.486251917354086"><ele>54.0</ele><time>2026-04-07T15:03:31.998Z</time></trkpt><trkpt lat="49.190718928021404" lon="2.486078040640086"><ele>54.0</ele><time>2026-04-07T15:03:32.998Z</time></trkpt><trkpt lat="49.19090441461775" lon="2.4863065233176624"><ele>54.6</ele><time>2026-04-07T15:03:38.998Z</time></trkpt><trkpt lat="49.19073608300627" lon="2.486076575146307"><ele>55.2</ele><time>2026-04-07T15:03:39.998Z</time></trkpt><trkpt lat="49.19064808804517" lon="2.486094357651792"><ele>55.800000000000004</ele><time>2026-04-07T15:03:43.998Z</time></trkpt><trkpt lat="49.19058243755579" lon="2.4861065239686604"><ele>56.400000000000006</ele><time>2026-04-07T15:03:46.998Z</time></trkpt><trkpt lat="49.190516384975915" lon="2.486110422470784"><ele>57.0</ele><time>2026-04-07T15:03:49.997Z</time></trkpt><trkpt lat="49.19043397997382" lon="2.4861061091735"><ele>57.0</ele><time>2026-04-07T15:03:53.997Z</time></trkpt><trkpt lat="49.19037132906777" lon="2.486071580910479"><ele>57.0</ele><time>2026-04-07T15:03:56.997Z</time></trkpt><trkpt lat="49.19029797882409" lon="2.4860994371438827"><ele>57.0</ele><time>2026-04-07T15:03:59.997Z</time></trkpt><trkpt lat="49.19025320879076" lon="2.4859875260571287"><ele>57.0</ele><time>2026-04-07T15:04:03Z</time></trkpt><trkpt lat="49.19023020301584" lon="2.4858547328628298"><ele>57.0</ele><time>2026-04-07T15:04:06Z</time></trkpt><trkpt lat="49.19022109868031" lon="2.485738843976302"><ele>57.0</ele><time>2026-04-07T15:04:09Z</time></trkpt><trkpt lat="49.19020112247894" lon="2.485621012088681"><ele>57.0</ele><time>2026-04-07T15:04:12Z</time></trkpt><trkpt lat="49.19016880512327" lon="2.485487978093841"><ele>57.0</ele><time>2026-04-07T15:04:15Z</time></trkpt><trkpt lat="49.19015380727035" lon="2.4853593664919744"><ele>57.0</ele><time>2026-04-07T15:04:18Z</time></trkpt><trkpt lat="49.19013330263271" lon="2.485243497128591"><ele>57.0</ele><time>2026-04-07T15:04:21Z</time></trkpt><trkpt lat="49.19010930925036" lon="2.485133871122325"><ele>57.0</ele><time>2026-04-07T15:04:24Z</time></trkpt><trkpt lat="49.190089369709696" lon="2.485014294791717"><ele>57.0</ele><time>2026-04-07T15:04:27Z</time></trkpt><trkpt lat="49.19007041654797" lon="2.484920235829806"><ele>56.833333333333336</ele><time>2026-04-07T15:04:29Z</time></trkpt><trkpt lat="49.190052255838246" lon="2.484787352796545"><ele>56.66666666666667</ele><time>2026-04-07T15:04:32Z</time></trkpt><trkpt lat="49.19007760138281" lon="2.484664354595635"><ele>56.5</ele><time>2026-04-07T15:04:34Z</time></trkpt><trkpt lat="49.19013229013984" lon="2.4845768103203456"><ele>56.333333333333336</ele><time>2026-04-07T15:04:36Z</time></trkpt><trkpt lat="49.190163631170314" lon="2.4844435852157076"><ele>56.16666666666667</ele><time>2026-04-07T15:04:38Z</time></trkpt><trkpt lat="49.19014341727012" lon="2.4843138729438343"><ele>56.0</ele><time>2026-04-07T15:04:40Z</time></trkpt><trkpt lat="49.19014341727042" lon="2.484196410598558"><ele>55.857142857142854</ele><time>2026-04-07T15:04:41.999Z</time></trkpt><trkpt lat="49.19023905191061" lon="2.484164232465903"><ele>55.714285714285715</ele><time>2026-04-07T15:04:42.999Z</time></trkpt><trkpt lat="49.19030326186014" lon="2.484094214799892"><ele>55.57142857142857</ele><time>2026-04-07T15:04:44.999Z</time></trkpt><trkpt lat="49.190359356645935" lon="2.4840317162409935"><ele>55.42857142857143</ele><time>2026-04-07T15:04:46.999Z</time></trkpt><trkpt lat="49.19042067289956" lon="2.4839766330059345"><ele>55.285714285714285</ele><time>2026-04-07T15:04:48.999Z</time></trkpt><trkpt lat="49.19045729097513" lon="2.4838967651815915"><ele>55.14285714285714</ele><time>2026-04-07T15:04:50.999Z</time></trkpt><trkpt lat="49.19051333708403" lon="2.4838522711252518"><ele>55.0</ele><time>2026-04-07T15:04:52.999Z</time></trkpt><trkpt lat="49.19057924274369" lon="2.4837688317605604"><ele>55.166666666666664</ele><time>2026-04-07T15:04:55.999Z</time></trkpt><trkpt lat="49.19055970643184" lon="2.4836053286579873"><ele>55.33333333333333</ele><time>2026-04-07T15:04:57.999Z</time></trkpt><trkpt lat="49.19054136817948" lon="2.483471141599355"><ele>55.5</ele><time>2026-04-07T15:05:00.999Z</time></trkpt><trkpt lat="49.19051750507515" lon="2.483350083159498"><ele>55.66666666666667</ele><time>2026-04-07T15:05:02.999Z</time></trkpt><trkpt lat="49.19051641348477" lon="2.483230368502545"><ele>55.833333333333336</ele><time>2026-04-07T15:05:04.999Z</time></trkpt><trkpt lat="49.19050221890397" lon="2.4831143152900936"><ele>56.0</ele><time>2026-04-07T15:05:06.999Z</time></trkpt><trkpt lat="49.190479604714625" lon="2.4829854652498033"><ele>55.857142857142854</ele><time>2026-04-07T15:05:08.999Z</time></trkpt><trkpt lat="49.190477727881195" lon="2.4828723881158776"><ele>55.714285714285715</ele><time>2026-04-07T15:05:10.999Z</time></trkpt><trkpt lat="49.19046867154517" lon="2.4827587598092054"><ele>55.57142857142857</ele><time>2026-04-07T15:05:12.999Z</time></trkpt><trkpt lat="49.190480244928104" lon="2.482650228434911"><ele>55.42857142857143</ele><time>2026-04-07T15:05:14.998Z</time></trkpt><trkpt lat="49.19046142928411" lon="2.4825406758191093"><ele>55.285714285714285</ele><time>2026-04-07T15:05:16.998Z</time></trkpt><trkpt lat="49.19045869619689" lon="2.482412836568479"><ele>55.14285714285714</ele><time>2026-04-07T15:05:18.998Z</time></trkpt><trkpt lat="49.190472086800774" lon="2.482306981033595"><ele>55.0</ele><time>2026-04-07T15:05:20.998Z</time></trkpt><trkpt lat="49.19046930259393" lon="2.4821898376069256"><ele>55.166666666666664</ele><time>2026-04-07T15:05:22.998Z</time></trkpt><trkpt lat="49.19046637035852" lon="2.4820664658546763"><ele>55.33333333333333</ele><time>2026-04-07T15:05:24.998Z</time></trkpt><trkpt lat="49.19045007460279" lon="2.4819571941138596"><ele>55.5</ele><time>2026-04-07T15:05:26.998Z</time></trkpt><trkpt lat="49.19044629128713" lon="2.4818395884422486"><ele>55.66666666666667</ele><time>2026-04-07T15:05:28.998Z</time></trkpt><trkpt lat="49.19045720872219" lon="2.481733716749398"><ele>55.833333333333336</ele><time>2026-04-07T15:05:30.998Z</time></trkpt><trkpt lat="49.19045446014245" lon="2.481594992608542"><ele>56.0</ele><time>2026-04-07T15:05:33.998Z</time></trkpt><trkpt lat="49.19053945422994" lon="2.4815872788414612"><ele>56.00000000000001</ele><time>2026-04-07T15:05:39.998Z</time></trkpt><trkpt lat="49.19061111897879" lon="2.4816567901654816"><ele>56.0</ele><time>2026-04-07T15:05:42.998Z</time></trkpt><trkpt lat="49.190672441640515" lon="2.4817396834362726"><ele>56.0</ele><time>2026-04-07T15:05:45.998Z</time></trkpt><trkpt lat="49.19073470753862" lon="2.4817036000669517"><ele>56.0</ele><time>2026-04-07T15:06:32Z</time></trkpt><trkpt lat="49.190670496497866" lon="2.481687202687656"><ele>56.00000000000001</ele><time>2026-04-07T15:21:37.999Z</time></trkpt><trkpt lat="49.190702174900004" lon="2.4817988677362246"><ele>56.0</ele><time>2026-04-07T15:21:43.999Z</time></trkpt><trkpt lat="49.190768756623555" lon="2.4818877473568426"><ele>55.833333333333336</ele><time>2026-04-07T15:21:46.999Z</time></trkpt><trkpt lat="49.190802360342005" lon="2.482020082453323"><ele>55.66666666666667</ele><time>2026-04-07T15:21:49.999Z</time></trkpt><trkpt lat="49.19083283091365" lon="2.4821351095222455"><ele>55.5</ele><time>2026-04-07T15:21:52.999Z</time></trkpt><trkpt lat="49.19085493891209" lon="2.482272316508266"><ele>55.33333333333333</ele><time>2026-04-07T15:21:55.998Z</time></trkpt><trkpt lat="49.19082145022372" lon="2.482360307585024"><ele>55.166666666666664</ele><time>2026-04-07T15:21:57.998Z</time></trkpt><trkpt lat="49.190751150650954" lon="2.4823972830801506"><ele>55.0</ele><time>2026-04-07T15:21:59.998Z</time></trkpt><trkpt lat="49.19067072827898" lon="2.482464337869038"><ele>54.99999999999999</ele><time>2026-04-07T15:22:02.998Z</time></trkpt><trkpt lat="49.19060372148181" lon="2.482471832535182"><ele>55.0</ele><time>2026-04-07T15:22:04.998Z</time></trkpt><trkpt lat="49.19053951592657" lon="2.48247950105654"><ele>55.0</ele><time>2026-04-07T15:22:06.998Z</time></trkpt><trkpt lat="49.19047058051459" lon="2.4825691193280788"><ele>55.0</ele><time>2026-04-07T15:22:09.998Z</time></trkpt><trkpt lat="49.19046577796449" lon="2.4827005044002823"><ele>54.99999999999999</ele><time>2026-04-07T15:22:12.998Z</time></trkpt><trkpt lat="49.19048142419126" lon="2.4828388849733454"><ele>55.0</ele><time>2026-04-07T15:22:15.998Z</time></trkpt><trkpt lat="49.19049412225777" lon="2.482982366213437"><ele>55.166666666666664</ele><time>2026-04-07T15:22:18.998Z</time></trkpt><trkpt lat="49.19051748595592" lon="2.4830867787972313"><ele>55.33333333333333</ele><time>2026-04-07T15:22:20.998Z</time></trkpt><trkpt lat="49.19053952805042" lon="2.4832199465882163"><ele>55.5</ele><time>2026-04-07T15:22:22.998Z</time></trkpt><trkpt lat="49.190552965720144" lon="2.483349572551378"><ele>55.66666666666667</ele><time>2026-04-07T15:22:24.998Z</time></trkpt><trkpt lat="49.19053153612926" lon="2.4834786123535095"><ele>55.833333333333336</ele><time>2026-04-07T15:22:26.998Z</time></trkpt><trkpt lat="49.19056065395981" lon="2.4835960257787755"><ele>56.0</ele><time>2026-04-07T15:22:28.998Z</time></trkpt><trkpt lat="49.19056223641112" lon="2.4837035054006966"><ele>56.00000000000001</ele><time>2026-04-07T15:22:31.998Z</time></trkpt><trkpt lat="49.190623153609586" lon="2.4837364564836935"><ele>56.0</ele><time>2026-04-07T15:22:33.997Z</time></trkpt><trkpt lat="49.19069965746309" lon="2.4836955995390424"><ele>56.0</ele><time>2026-04-07T15:22:35.997Z</time></trkpt><trkpt lat="49.190787366371985" lon="2.483645955087978"><ele>56.0</ele><time>2026-04-07T15:22:37.997Z</time></trkpt><trkpt lat="49.19086699271581" lon="2.4836259094632482"><ele>56.00000000000001</ele><time>2026-04-07T15:22:39.997Z</time></trkpt><trkpt lat="49.19094622322599" lon="2.4836820771538335"><ele>56.0</ele><time>2026-04-07T15:22:41.997Z</time></trkpt><trkpt lat="49.1910403904935" lon="2.4836819069395775"><ele>55.199999999999996</ele><time>2026-04-07T15:22:43.997Z</time></trkpt><trkpt lat="49.19108552112376" lon="2.483794946861831"><ele>54.39999999999999</ele><time>2026-04-07T15:22:45.997Z</time></trkpt><trkpt lat="49.191153152606475" lon="2.4839129257649106"><ele>53.6</ele><time>2026-04-07T15:22:47.997Z</time></trkpt><trkpt lat="49.19123626238062" lon="2.484011850999019"><ele>52.8</ele><time>2026-04-07T15:22:49.997Z</time></trkpt><trkpt lat="49.19135683479307" lon="2.4840259526746826"><ele>52.0</ele><time>2026-04-07T15:22:52Z</time></trkpt><trkpt lat="49.19147512874253" lon="2.483983663742062"><ele>51.33333333333333</ele><time>2026-04-07T15:22:54Z</time></trkpt><trkpt lat="49.1915550865236" lon="2.4839087631977366"><ele>50.666666666666664</ele><time>2026-04-07T15:22:56Z</time></trkpt><trkpt lat="49.191558144025656" lon="2.483784603768182"><ele>50.0</ele><time>2026-04-07T15:22:58Z</time></trkpt><trkpt lat="49.191549739315086" lon="2.483664368587996"><ele>49.33333333333333</ele><time>2026-04-07T15:23:00Z</time></trkpt><trkpt lat="49.19153611704823" lon="2.4835344138177344"><ele>48.666666666666664</ele><time>2026-04-07T15:23:02Z</time></trkpt><trkpt lat="49.19157352709367" lon="2.483402750233372"><ele>48.0</ele><time>2026-04-07T15:23:04Z</time></trkpt><trkpt lat="49.19160787751404" lon="2.4832811075982497"><ele>48.0</ele><time>2026-04-07T15:23:06Z</time></trkpt><trkpt lat="49.191648430804804" lon="2.4831551921059396"><ele>48.0</ele><time>2026-04-07T15:23:08Z</time></trkpt><trkpt lat="49.191716560135944" lon="2.4830515060237546"><ele>48.0</ele><time>2026-04-07T15:23:10Z</time></trkpt><trkpt lat="49.19181367158925" lon="2.482987935910151"><ele>48.0</ele><time>2026-04-07T15:23:12Z</time></trkpt><trkpt lat="49.19190938596991" lon="2.4829133608936473"><ele>48.0</ele><time>2026-04-07T15:23:14Z</time></trkpt><trkpt lat="49.192011120632316" lon="2.482834322117778"><ele>48.2</ele><time>2026-04-07T15:23:16Z</time></trkpt><trkpt lat="49.192103537999614" lon="2.4827693652462877"><ele>48.4</ele><time>2026-04-07T15:23:18Z</time></trkpt><trkpt lat="49.192202938140284" lon="2.482704064646346"><ele>48.6</ele><time>2026-04-07T15:23:20Z</time></trkpt><trkpt lat="49.192302261565416" lon="2.4826469537736577"><ele>48.800000000000004</ele><time>2026-04-07T15:23:22Z</time></trkpt><trkpt lat="49.192396082990655" lon="2.4825726293419326"><ele>49.0</ele><time>2026-04-07T15:23:23.999Z</time></trkpt><trkpt lat="49.19249292226711" lon="2.482503327045575"><ele>48.0</ele><time>2026-04-07T15:23:25.999Z</time></trkpt><trkpt lat="49.19258265199751" lon="2.48242656594901"><ele>47.0</ele><time>2026-04-07T15:23:27.999Z</time></trkpt><trkpt lat="49.192670216249276" lon="2.4823494585174264"><ele>46.0</ele><time>2026-04-07T15:23:29.999Z</time></trkpt><trkpt lat="49.19276243986797" lon="2.482275418308106"><ele>45.0</ele><time>2026-04-07T15:23:31.999Z</time></trkpt><trkpt lat="49.19285244678738" lon="2.4821954705802614"><ele>44.0</ele><time>2026-04-07T15:23:33.999Z</time></trkpt><trkpt lat="49.192932929097786" lon="2.482107297972677"><ele>44.6</ele><time>2026-04-07T15:23:35.999Z</time></trkpt><trkpt lat="49.193006938098996" lon="2.482023000995139"><ele>45.2</ele><time>2026-04-07T15:23:37.999Z</time></trkpt><trkpt lat="49.19307746445099" lon="2.481919678556249"><ele>45.800000000000004</ele><time>2026-04-07T15:23:39.999Z</time></trkpt><trkpt lat="49.193139049882596" lon="2.481806804894256"><ele>46.400000000000006</ele><time>2026-04-07T15:23:41.999Z</time></trkpt><trkpt lat="49.19319257425698" lon="2.4816809256410406"><ele>47.0</ele><time>2026-04-07T15:23:43.999Z</time></trkpt><trkpt lat="49.19324092989593" lon="2.4815603650192335"><ele>47.33333333333333</ele><time>2026-04-07T15:23:45.999Z</time></trkpt><trkpt lat="49.19328997682149" lon="2.4814453952511024"><ele>47.666666666666664</ele><time>2026-04-07T15:23:47.999Z</time></trkpt><trkpt lat="49.19332801743529" lon="2.4813248032327686"><ele>48.0</ele><time>2026-04-07T15:23:49.999Z</time></trkpt><trkpt lat="49.19337086492834" lon="2.4812020206480847"><ele>48.33333333333333</ele><time>2026-04-07T15:23:51.999Z</time></trkpt><trkpt lat="49.193403566635816" lon="2.481069239893637"><ele>48.666666666666664</ele><time>2026-04-07T15:23:53.999Z</time></trkpt><trkpt lat="49.19342639952836" lon="2.480954442941561"><ele>49.0</ele><time>2026-04-07T15:23:55.999Z</time></trkpt><trkpt lat="49.193452577648266" lon="2.480842029098474"><ele>51.0</ele><time>2026-04-07T15:23:57.999Z</time></trkpt><trkpt lat="49.193462677220374" lon="2.480727179149197"><ele>51.0</ele><time>2026-04-07T15:23:59.999Z</time></trkpt><trkpt lat="49.19347738974377" lon="2.4806135376225247"><ele>51.0</ele><time>2026-04-07T15:24:02.998Z</time></trkpt><trkpt lat="49.19348644641268" lon="2.480506591784734"><ele>51.0</ele><time>2026-04-07T15:24:05.998Z</time></trkpt></trkseg><trkseg><trkpt lat="49.15733380578234" lon="2.4946195570751755"><ele>54.0</ele><time>2026-04-07T16:38:11.999Z</time></trkpt><trkpt lat="49.15726217994737" lon="2.494630978048003"><ele>54.0</ele><time>2026-04-07T16:38:14.999Z</time></trkpt><trkpt lat="49.15719630250319" lon="2.4946464282351815"><ele>54.0</ele><time>2026-04-07T16:38:16.999Z</time></trkpt><trkpt lat="49.157133732609594" lon="2.4946349287682708"><ele>54.0</ele><time>2026-04-07T16:38:18.999Z</time></trkpt><trkpt lat="49.157052622445235" lon="2.494640771636272"><ele>54.0</ele><time>2026-04-07T16:38:21.999Z</time></trkpt><trkpt lat="49.156984634612314" lon="2.494656570570024"><ele>54.0</ele><time>2026-04-07T16:38:24.999Z</time></trkpt><trkpt lat="49.15690360559118" lon="2.494686897809459"><ele>54.0</ele><time>2026-04-07T16:38:27.999Z</time></trkpt><trkpt lat="49.15683987258439" lon="2.494691646832157"><ele>54.0</ele><time>2026-04-07T16:38:29.999Z</time></trkpt><trkpt lat="49.15675307875045" lon="2.4946965826384484"><ele>54.0</ele><time>2026-04-07T16:38:32.999Z</time></trkpt><trkpt lat="49.15668730908423" lon="2.494705458499131"><ele>54.0</ele><time>2026-04-07T16:38:34.999Z</time></trkpt><trkpt lat="49.156616362501616" lon="2.494776721211995"><ele>54.0</ele><time>2026-04-07T16:38:37.998Z</time></trkpt><trkpt lat="49.156593479776895" lon="2.4949112253947217"><ele>54.0</ele><time>2026-04-07T16:38:40.998Z</time></trkpt><trkpt lat="49.15659509326569" lon="2.4950438697316817"><ele>54.0</ele><time>2026-04-07T16:38:43.998Z</time></trkpt><trkpt lat="49.15659124491524" lon="2.495149959272936"><ele>54.0</ele><time>2026-04-07T16:38:48.998Z</time></trkpt><trkpt lat="49.15657384062155" lon="2.4952485539563383"><ele>54.0</ele><time>2026-04-07T16:38:55.998Z</time></trkpt><trkpt lat="49.15654654779939" lon="2.4953540777206746"><ele>54.0</ele><time>2026-04-07T16:39:01.998Z</time></trkpt><trkpt lat="49.15652142305877" lon="2.4954600534925904"><ele>54.0</ele><time>2026-04-07T16:39:08.998Z</time></trkpt><trkpt lat="49.15651035070424" lon="2.495556044659981"><ele>54.0</ele><time>2026-04-07T16:39:14.997Z</time></trkpt><trkpt lat="49.15649481310026" lon="2.495669183962254"><ele>54.0</ele><time>2026-04-07T16:39:22.997Z</time></trkpt><trkpt lat="49.15647881965578" lon="2.4957665051839864"><ele>54.0</ele><time>2026-04-07T16:39:29.997Z</time></trkpt><trkpt lat="49.15646060943966" lon="2.495868150043986"><ele>55.57142857142857</ele><time>2026-04-07T16:39:38Z</time></trkpt><trkpt lat="49.15642227853638" lon="2.4959490024039233"><ele>57.14285714285714</ele><time>2026-04-07T16:39:44Z</time></trkpt><trkpt lat="49.15637376129248" lon="2.49601190009269"><ele>58.71428571428572</ele><time>2026-04-07T16:39:52Z</time></trkpt><trkpt lat="49.15637661009191" lon="2.496135950310816"><ele>60.28571428571429</ele><time>2026-04-07T16:39:57Z</time></trkpt><trkpt lat="49.156385282018796" lon="2.496263231572079"><ele>61.85714285714286</ele><time>2026-04-07T16:40:00Z</time></trkpt><trkpt lat="49.15638810169408" lon="2.496360148197551"><ele>63.42857142857144</ele><time>2026-04-07T16:40:02Z</time></trkpt><trkpt lat="49.15638976707119" lon="2.4964585201799094"><ele>65.0</ele><time>2026-04-07T16:40:04Z</time></trkpt><trkpt lat="49.15639952237736" lon="2.4966009842422285"><ele>65.0</ele><time>2026-04-07T16:40:06.999Z</time></trkpt><trkpt lat="49.15640602542327" lon="2.4967417772239395"><ele>65.0</ele><time>2026-04-07T16:40:09.999Z</time></trkpt><trkpt lat="49.1564197232236" lon="2.4968654484296957"><ele>65.0</ele><time>2026-04-07T16:40:12.999Z</time></trkpt><trkpt lat="49.156421564489875" lon="2.4969620538235855"><ele>65.0</ele><time>2026-04-07T16:40:14.999Z</time></trkpt><trkpt lat="49.156423019868235" lon="2.497065983930299"><ele>65.0</ele><time>2026-04-07T16:40:16.999Z</time></trkpt><trkpt lat="49.15643400340073" lon="2.497173522015508"><ele>65.0</ele><time>2026-04-07T16:40:18.999Z</time></trkpt><trkpt lat="49.156442097070766" lon="2.497286971289528"><ele>64.85714285714286</ele><time>2026-04-07T16:40:20.999Z</time></trkpt><trkpt lat="49.15644113737689" lon="2.4974041948320287"><ele>64.71428571428572</ele><time>2026-04-07T16:40:22.999Z</time></trkpt><trkpt lat="49.15645416220405" lon="2.497507992630471"><ele>64.57142857142857</ele><time>2026-04-07T16:40:24.999Z</time></trkpt><trkpt lat="49.15646020041817" lon="2.4976306043809493"><ele>64.42857142857143</ele><time>2026-04-07T16:40:26.999Z</time></trkpt><trkpt lat="49.15646481730444" lon="2.4977305537886703"><ele>64.28571428571428</ele><time>2026-04-07T16:40:28.999Z</time></trkpt><trkpt lat="49.156468990012975" lon="2.497856066449159"><ele>64.14285714285714</ele><time>2026-04-07T16:40:30.999Z</time></trkpt><trkpt lat="49.15646899037429" lon="2.497967839494102"><ele>64.0</ele><time>2026-04-07T16:40:32.999Z</time></trkpt><trkpt lat="49.15646231775105" lon="2.498084040144558"><ele>64.14285714285714</ele><time>2026-04-07T16:40:34.999Z</time></trkpt><trkpt lat="49.156447199015986" lon="2.4981989052268747"><ele>64.28571428571428</ele><time>2026-04-07T16:40:36.999Z</time></trkpt><trkpt lat="49.156437703100174" lon="2.4983092130234037"><ele>64.42857142857143</ele><time>2026-04-07T16:40:38.999Z</time></trkpt><trkpt lat="49.15642205811125" lon="2.498416931786289"><ele>64.57142857142857</ele><time>2026-04-07T16:40:40.998Z</time></trkpt><trkpt lat="49.15640359925117" lon="2.4985233967580722"><ele>64.71428571428572</ele><time>2026-04-07T16:40:42.998Z</time></trkpt><trkpt lat="49.15638607663482" lon="2.4986299364528013"><ele>64.85714285714286</ele><time>2026-04-07T16:40:44.998Z</time></trkpt><trkpt lat="49.15637187848305" lon="2.4987380110993422"><ele>65.0</ele><time>2026-04-07T16:40:46.998Z</time></trkpt><trkpt lat="49.15635014840601" lon="2.498840270208833"><ele>65.00000000000001</ele><time>2026-04-07T16:40:48.998Z</time></trkpt><trkpt lat="49.15633517207076" lon="2.4989477376275224"><ele>65.0</ele><time>2026-04-07T16:40:50.998Z</time></trkpt><trkpt lat="49.15632315501371" lon="2.499049714993738"><ele>65.0</ele><time>2026-04-07T16:40:52.998Z</time></trkpt><trkpt lat="49.15630327171953" lon="2.4991540597822017"><ele>65.0</ele><time>2026-04-07T16:40:54.998Z</time></trkpt><trkpt lat="49.156283228950045" lon="2.499251820056289"><ele>65.0</ele><time>2026-04-07T16:40:56.998Z</time></trkpt><trkpt lat="49.156268514689025" lon="2.4993532495499253"><ele>65.00000000000001</ele><time>2026-04-07T16:40:58.998Z</time></trkpt><trkpt lat="49.156253177985135" lon="2.4994589067759483"><ele>65.0</ele><time>2026-04-07T16:41:00.998Z</time></trkpt><trkpt lat="49.15622992435572" lon="2.4995607216120606"><ele>65.14285714285715</ele><time>2026-04-07T16:41:02.998Z</time></trkpt><trkpt lat="49.15619831117367" lon="2.4996581967985345"><ele>65.28571428571429</ele><time>2026-04-07T16:41:04.998Z</time></trkpt><trkpt lat="49.15614967230354" lon="2.4997320932381246"><ele>65.42857142857143</ele><time>2026-04-07T16:41:06.998Z</time></trkpt><trkpt lat="49.15607596698701" lon="2.4997653592734377"><ele>65.57142857142858</ele><time>2026-04-07T16:41:08.998Z</time></trkpt><trkpt lat="49.15601317588088" lon="2.499802428919435"><ele>65.71428571428572</ele><time>2026-04-07T16:41:10.998Z</time></trkpt><trkpt lat="49.15594175497013" lon="2.4998498018043325"><ele>65.85714285714286</ele><time>2026-04-07T16:41:13.998Z</time></trkpt><trkpt lat="49.15586859850902" lon="2.499888993309603"><ele>66.0</ele><time>2026-04-07T16:41:16.997Z</time></trkpt><trkpt lat="49.15578976724558" lon="2.4999337445913787"><ele>66.0</ele><time>2026-04-07T16:41:19.997Z</time></trkpt><trkpt lat="49.15570557916239" lon="2.499980873995725"><ele>66.0</ele><time>2026-04-07T16:41:22.997Z</time></trkpt><trkpt lat="49.155631235627" lon="2.5000282981709123"><ele>66.0</ele><time>2026-04-07T16:41:25.997Z</time></trkpt><trkpt lat="49.15555312359655" lon="2.500070933877819"><ele>66.0</ele><time>2026-04-07T16:41:28.997Z</time></trkpt><trkpt lat="49.15547428788913" lon="2.5001211134411525"><ele>66.0</ele><time>2026-04-07T16:41:31.997Z</time></trkpt><trkpt lat="49.155391259513415" lon="2.5001680680055833"><ele>66.0</ele><time>2026-04-07T16:41:34.997Z</time></trkpt><trkpt lat="49.15530566603763" lon="2.50022523184595"><ele>66.0</ele><time>2026-04-07T16:41:37.997Z</time></trkpt><trkpt lat="49.15522079571488" lon="2.5002748855099104"><ele>66.0</ele><time>2026-04-07T16:41:40.997Z</time></trkpt><trkpt lat="49.15513539389213" lon="2.5003092532289886"><ele>66.0</ele><time>2026-04-07T16:41:44Z</time></trkpt><trkpt lat="49.15506885371695" lon="2.5003510219576066"><ele>66.0</ele><time>2026-04-07T16:41:46Z</time></trkpt><trkpt lat="49.15501030591399" lon="2.5003936884105844"><ele>66.0</ele><time>2026-04-07T16:41:48Z</time></trkpt><trkpt lat="49.154921946006084" lon="2.5004535697539985"><ele>66.0</ele><time>2026-04-07T16:41:51Z</time></trkpt><trkpt lat="49.154836749880566" lon="2.500487583306365"><ele>66.14285714285714</ele><time>2026-04-07T16:41:54Z</time></trkpt><trkpt lat="49.15477538137374" lon="2.5005258119157414"><ele>66.28571428571429</ele><time>2026-04-07T16:41:56Z</time></trkpt><trkpt lat="49.15470293131397" lon="2.5005722566294586"><ele>66.42857142857143</ele><time>2026-04-07T16:41:59Z</time></trkpt><trkpt lat="49.154641491064886" lon="2.500611548976626"><ele>66.57142857142857</ele><time>2026-04-07T16:42:01Z</time></trkpt><trkpt lat="49.154548032251256" lon="2.500662329750724"><ele>66.71428571428571</ele><time>2026-04-07T16:42:04Z</time></trkpt><trkpt lat="49.154486687368355" lon="2.500692315791323"><ele>66.85714285714286</ele><time>2026-04-07T16:42:06Z</time></trkpt><trkpt lat="49.154423937147165" lon="2.50073008192314"><ele>67.0</ele><time>2026-04-07T16:42:08Z</time></trkpt><trkpt lat="49.154360541309536" lon="2.5007707242424653"><ele>67.0</ele><time>2026-04-07T16:42:10Z</time></trkpt><trkpt lat="49.1542974527404" lon="2.5008220270885"><ele>67.0</ele><time>2026-04-07T16:42:12Z</time></trkpt><trkpt lat="49.154210608818474" lon="2.500874253358657"><ele>67.0</ele><time>2026-04-07T16:42:14.999Z</time></trkpt><trkpt lat="49.15412693146498" lon="2.500919314487992"><ele>67.0</ele><time>2026-04-07T16:42:16.999Z</time></trkpt><trkpt lat="49.1540605036217" lon="2.5009557101470907"><ele>67.0</ele><time>2026-04-07T16:42:18.999Z</time></trkpt><trkpt lat="49.15398437332725" lon="2.501013903869587"><ele>67.0</ele><time>2026-04-07T16:42:20.999Z</time></trkpt><trkpt lat="49.153915651796666" lon="2.5010575269849333"><ele>67.0</ele><time>2026-04-07T16:42:22.999Z</time></trkpt><trkpt lat="49.15384748102666" lon="2.501102632302298"><ele>67.0</ele><time>2026-04-07T16:42:24.999Z</time></trkpt><trkpt lat="49.153767263660264" lon="2.5011521702340147"><ele>67.0</ele><time>2026-04-07T16:42:26.999Z</time></trkpt><trkpt lat="49.15368036611421" lon="2.5011863614935175"><ele>67.0</ele><time>2026-04-07T16:42:28.999Z</time></trkpt><trkpt lat="49.15359632609834" lon="2.5012434398829906"><ele>67.0</ele><time>2026-04-07T16:42:30.999Z</time></trkpt><trkpt lat="49.153517310557824" lon="2.501291732181342"><ele>67.0</ele><time>2026-04-07T16:42:32.999Z</time></trkpt><trkpt lat="49.1534348903733" lon="2.5013327627845396"><ele>67.0</ele><time>2026-04-07T16:42:34.999Z</time></trkpt><trkpt lat="49.1533523021886" lon="2.501384848987118"><ele>67.0</ele><time>2026-04-07T16:42:36.999Z</time></trkpt><trkpt lat="49.153258860193745" lon="2.501440750188809"><ele>67.0</ele><time>2026-04-07T16:42:38.999Z</time></trkpt><trkpt lat="49.1531642608931" lon="2.5014914641820303"><ele>67.0</ele><time>2026-04-07T16:42:40.999Z</time></trkpt><trkpt lat="49.15308006949675" lon="2.5015522922377373"><ele>67.0</ele><time>2026-04-07T16:42:42.999Z</time></trkpt><trkpt lat="49.15298008678057" lon="2.501624830161303"><ele>67.0</ele><time>2026-04-07T16:42:44.999Z</time></trkpt><trkpt lat="49.1528758296818" lon="2.501671104425339"><ele>67.0</ele><time>2026-04-07T16:42:46.999Z</time></trkpt><trkpt lat="49.152778571060544" lon="2.5017342136659457"><ele>67.0</ele><time>2026-04-07T16:42:48.998Z</time></trkpt><trkpt lat="49.15267667991858" lon="2.50179001553882"><ele>67.0</ele><time>2026-04-07T16:42:50.998Z</time></trkpt><trkpt lat="49.15258495949151" lon="2.5018465119451414"><ele>67.0</ele><time>2026-04-07T16:42:52.998Z</time></trkpt><trkpt lat="49.152487822562435" lon="2.5018984835055234"><ele>67.0</ele><time>2026-04-07T16:42:54.998Z</time></trkpt><trkpt lat="49.15239539140581" lon="2.5019480448048594"><ele>67.0</ele><time>2026-04-07T16:42:56.998Z</time></trkpt><trkpt lat="49.152305302019805" lon="2.5020036657930294"><ele>67.0</ele><time>2026-04-07T16:42:58.998Z</time></trkpt><trkpt lat="49.1522173706323" lon="2.5020655556335583"><ele>67.0</ele><time>2026-04-07T16:43:00.998Z</time></trkpt><trkpt lat="49.152126294663994" lon="2.5021148962824875"><ele>67.0</ele><time>2026-04-07T16:43:02.998Z</time></trkpt><trkpt lat="49.152036955081215" lon="2.5021616887041658"><ele>66.83333333333333</ele><time>2026-04-07T16:43:04.998Z</time></trkpt><trkpt lat="49.151953843392064" lon="2.502206234398996"><ele>66.66666666666666</ele><time>2026-04-07T16:43:06.998Z</time></trkpt><trkpt lat="49.15186440965548" lon="2.5022522751617426"><ele>66.5</ele><time>2026-04-07T16:43:08.998Z</time></trkpt><trkpt lat="49.15180297913493" lon="2.502303904184088"><ele>66.33333333333333</ele><time>2026-04-07T16:43:10.998Z</time></trkpt><trkpt lat="49.15174128388831" lon="2.5023446944386207"><ele>66.16666666666667</ele><time>2026-04-07T16:43:12.998Z</time></trkpt><trkpt lat="49.15166375233134" lon="2.5023858812574917"><ele>66.0</ele><time>2026-04-07T16:43:14.998Z</time></trkpt><trkpt lat="49.15160154809112" lon="2.50242665245828"><ele>66.42857142857143</ele><time>2026-04-07T16:43:16.998Z</time></trkpt><trkpt lat="49.15153865106079" lon="2.5024723953108343"><ele>66.85714285714286</ele><time>2026-04-07T16:43:18.998Z</time></trkpt><trkpt lat="49.15145592291124" lon="2.502515426316962"><ele>67.28571428571429</ele><time>2026-04-07T16:43:21.997Z</time></trkpt><trkpt lat="49.151395931018136" lon="2.50255527947504"><ele>67.71428571428572</ele><time>2026-04-07T16:43:23.997Z</time></trkpt><trkpt lat="49.151329012303" lon="2.502601688857093"><ele>68.14285714285715</ele><time>2026-04-07T16:43:25.997Z</time></trkpt><trkpt lat="49.15126247966871" lon="2.502646778414225"><ele>68.57142857142857</ele><time>2026-04-07T16:43:27.997Z</time></trkpt><trkpt lat="49.151194294280124" lon="2.5026808247128045"><ele>69.0</ele><time>2026-04-07T16:43:29.997Z</time></trkpt><trkpt lat="49.15112408279684" lon="2.502726263785513"><ele>69.0</ele><time>2026-04-07T16:43:31.997Z</time></trkpt><trkpt lat="49.151058282043" lon="2.5027672033042982"><ele>69.0</ele><time>2026-04-07T16:43:33.997Z</time></trkpt><trkpt lat="49.150999700005656" lon="2.5028133696928965"><ele>69.0</ele><time>2026-04-07T16:43:35.997Z</time></trkpt><trkpt lat="49.150934418032556" lon="2.5028431631901618"><ele>69.0</ele><time>2026-04-07T16:43:37.997Z</time></trkpt><trkpt lat="49.15086498057199" lon="2.5028790854486855"><ele>69.0</ele><time>2026-04-07T16:43:39.997Z</time></trkpt><trkpt lat="49.1507964909109" lon="2.5029300235949004"><ele>69.0</ele><time>2026-04-07T16:43:41.997Z</time></trkpt><trkpt lat="49.150729893134965" lon="2.50295457674914"><ele>69.0</ele><time>2026-04-07T16:43:43.997Z</time></trkpt><trkpt lat="49.150659087744806" lon="2.5030010855442866"><ele>69.16666666666667</ele><time>2026-04-07T16:43:45.997Z</time></trkpt><trkpt lat="49.15058984901315" lon="2.5030350463115947"><ele>69.33333333333333</ele><time>2026-04-07T16:43:48Z</time></trkpt><trkpt lat="49.15051537439177" lon="2.5030878865804134"><ele>69.5</ele><time>2026-04-07T16:43:50Z</time></trkpt><trkpt lat="49.1504438458783" lon="2.503141999397775"><ele>69.66666666666666</ele><time>2026-04-07T16:43:52Z</time></trkpt><trkpt lat="49.15037102737707" lon="2.503182426235748"><ele>69.83333333333333</ele><time>2026-04-07T16:43:54Z</time></trkpt><trkpt lat="49.15027970233021" lon="2.503224976627271"><ele>70.0</ele><time>2026-04-07T16:43:56Z</time></trkpt><trkpt lat="49.15020062192317" lon="2.503286572657835"><ele>70.0</ele><time>2026-04-07T16:43:58Z</time></trkpt><trkpt lat="49.15012009445575" lon="2.5033467958831968"><ele>70.0</ele><time>2026-04-07T16:44:00Z</time></trkpt><trkpt lat="49.15004355619691" lon="2.5033838529105137"><ele>70.0</ele><time>2026-04-07T16:44:02Z</time></trkpt><trkpt lat="49.14996233446123" lon="2.503423119110399"><ele>70.0</ele><time>2026-04-07T16:44:04Z</time></trkpt><trkpt lat="49.14988231741047" lon="2.5034746933732785"><ele>70.0</ele><time>2026-04-07T16:44:06Z</time></trkpt><trkpt lat="49.149811292740594" lon="2.5035177891070552"><ele>70.0</ele><time>2026-04-07T16:44:08Z</time></trkpt><trkpt lat="49.14973083546754" lon="2.503572146288412"><ele>70.16666666666666</ele><time>2026-04-07T16:44:10Z</time></trkpt><trkpt lat="49.149641990537326" lon="2.50361422955954"><ele>70.33333333333333</ele><time>2026-04-07T16:44:12Z</time></trkpt><trkpt lat="49.14955620667332" lon="2.50365739013822"><ele>70.5</ele><time>2026-04-07T16:44:14Z</time></trkpt><trkpt lat="49.14947791331065" lon="2.5037140016400152"><ele>70.66666666666667</ele><time>2026-04-07T16:44:16Z</time></trkpt><trkpt lat="49.14940018313271" lon="2.5037616612368425"><ele>70.83333333333334</ele><time>2026-04-07T16:44:18Z</time></trkpt><trkpt lat="49.14931908984443" lon="2.5038128205752566"><ele>71.0</ele><time>2026-04-07T16:44:20Z</time></trkpt><trkpt lat="49.149242000688744" lon="2.5038553582276064"><ele>70.66666666666667</ele><time>2026-04-07T16:44:22Z</time></trkpt><trkpt lat="49.1491664977746" lon="2.503890995412123"><ele>70.33333333333334</ele><time>2026-04-07T16:44:23.999Z</time></trkpt><trkpt lat="49.149084793068454" lon="2.5039399333058494"><ele>70.0</ele><time>2026-04-07T16:44:25.999Z</time></trkpt><trkpt lat="49.14901405127862" lon="2.5039923397288786"><ele>69.66666666666667</ele><time>2026-04-07T16:44:27.999Z</time></trkpt><trkpt lat="49.14892642108535" lon="2.5040475498120784"><ele>69.33333333333333</ele><time>2026-04-07T16:44:29.999Z</time></trkpt><trkpt lat="49.14883754091253" lon="2.504106092685372"><ele>69.0</ele><time>2026-04-07T16:44:31.999Z</time></trkpt><trkpt lat="49.14874334565867" lon="2.5041594429923073"><ele>68.83333333333333</ele><time>2026-04-07T16:44:33.999Z</time></trkpt><trkpt lat="49.14866226401852" lon="2.5041931720138395"><ele>68.66666666666667</ele><time>2026-04-07T16:44:35.999Z</time></trkpt><trkpt lat="49.14859303472381" lon="2.504304822725818"><ele>68.5</ele><time>2026-04-07T16:44:37.999Z</time></trkpt><trkpt lat="49.14851409631016" lon="2.5043126806720406"><ele>68.33333333333334</ele><time>2026-04-07T16:44:39.999Z</time></trkpt><trkpt lat="49.14844215587055" lon="2.5042688398668385"><ele>68.16666666666667</ele><time>2026-04-07T16:44:41.999Z</time></trkpt><trkpt lat="49.148361423995546" lon="2.5042105295045376"><ele>68.0</ele><time>2026-04-07T16:44:43.999Z</time></trkpt><trkpt lat="49.14828105372598" lon="2.504141269134115"><ele>67.0</ele><time>2026-04-07T16:44:45.999Z</time></trkpt><trkpt lat="49.14819756630332" lon="2.5040772528034725"><ele>66.0</ele><time>2026-04-07T16:44:47.999Z</time></trkpt><trkpt lat="49.14811586059789" lon="2.5040077589539718"><ele>65.0</ele><time>2026-04-07T16:44:49.999Z</time></trkpt><trkpt lat="49.148035291972484" lon="2.503938839865905"><ele>64.0</ele><time>2026-04-07T16:44:51.999Z</time></trkpt><trkpt lat="49.14795515514461" lon="2.5038705596280884"><ele>63.0</ele><time>2026-04-07T16:44:53.999Z</time></trkpt><trkpt lat="49.147873620621375" lon="2.503804300595725"><ele>63.599999999999994</ele><time>2026-04-07T16:44:55.999Z</time></trkpt><trkpt lat="49.14779074092209" lon="2.5037375047338286"><ele>64.19999999999999</ele><time>2026-04-07T16:44:57.999Z</time></trkpt><trkpt lat="49.147707842786545" lon="2.5036699545813557"><ele>64.8</ele><time>2026-04-07T16:44:59.998Z</time></trkpt><trkpt lat="49.14762454740576" lon="2.503602560816075"><ele>65.39999999999999</ele><time>2026-04-07T16:45:01.998Z</time></trkpt><trkpt lat="49.14754101066632" lon="2.5035264533409847"><ele>66.0</ele><time>2026-04-07T16:45:03.998Z</time></trkpt><trkpt lat="49.14745590807494" lon="2.503451117400399"><ele>65.2</ele><time>2026-04-07T16:45:05.998Z</time></trkpt><trkpt lat="49.14736654968418" lon="2.503375474834606"><ele>64.39999999999999</ele><time>2026-04-07T16:45:07.998Z</time></trkpt><trkpt lat="49.14728332826392" lon="2.503296941683835"><ele>63.6</ele><time>2026-04-07T16:45:09.998Z</time></trkpt><trkpt lat="49.14719779741585" lon="2.5032275176687384"><ele>62.8</ele><time>2026-04-07T16:45:11.998Z</time></trkpt><trkpt lat="49.14711388535738" lon="2.503156391917488"><ele>62.0</ele><time>2026-04-07T16:45:13.998Z</time></trkpt><trkpt lat="49.147029991424354" lon="2.5030812304365297"><ele>62.0</ele><time>2026-04-07T16:45:15.998Z</time></trkpt><trkpt lat="49.14694388333476" lon="2.5030045781871233"><ele>62.0</ele><time>2026-04-07T16:45:17.998Z</time></trkpt><trkpt lat="49.14685832327904" lon="2.5029295145204498"><ele>62.0</ele><time>2026-04-07T16:45:19.998Z</time></trkpt><trkpt lat="49.14677415871628" lon="2.5028550910615395"><ele>62.0</ele><time>2026-04-07T16:45:21.998Z</time></trkpt><trkpt lat="49.14669177234404" lon="2.5027820186318603"><ele>62.0</ele><time>2026-04-07T16:45:23.998Z</time></trkpt><trkpt lat="49.146609820453925" lon="2.502710361475183"><ele>63.2</ele><time>2026-04-07T16:45:25.998Z</time></trkpt><trkpt lat="49.14652693400882" lon="2.502651462801354"><ele>64.4</ele><time>2026-04-07T16:45:27.998Z</time></trkpt><trkpt lat="49.14644904624486" lon="2.5025849613621407"><ele>65.6</ele><time>2026-04-07T16:45:29.998Z</time></trkpt><trkpt lat="49.14637199008372" lon="2.5025139509863146"><ele>66.8</ele><time>2026-04-07T16:45:31.998Z</time></trkpt><trkpt lat="49.14629553391711" lon="2.5024405980759656"><ele>68.0</ele><time>2026-04-07T16:45:33.997Z</time></trkpt><trkpt lat="49.146214585843396" lon="2.5023770507844723"><ele>68.0</ele><time>2026-04-07T16:45:35.997Z</time></trkpt><trkpt lat="49.14613624672159" lon="2.502316038103162"><ele>68.0</ele><time>2026-04-07T16:45:37.997Z</time></trkpt><trkpt lat="49.14606644461916" lon="2.5022451707358764"><ele>68.0</ele><time>2026-04-07T16:45:39.997Z</time></trkpt><trkpt lat="49.145992941909725" lon="2.502175334679358"><ele>68.0</ele><time>2026-04-07T16:45:41.997Z</time></trkpt><trkpt lat="49.145923181743946" lon="2.5021138983580933"><ele>68.0</ele><time>2026-04-07T16:45:43.997Z</time></trkpt><trkpt lat="49.145846147126676" lon="2.502047178223839"><ele>68.0</ele><time>2026-04-07T16:45:45.997Z</time></trkpt><trkpt lat="49.14577589974093" lon="2.5019762579605787"><ele>69.0</ele><time>2026-04-07T16:45:47.997Z</time></trkpt><trkpt lat="49.14569219829306" lon="2.5019272881837575"><ele>70.0</ele><time>2026-04-07T16:45:49.997Z</time></trkpt><trkpt lat="49.145611730380786" lon="2.501852526344716"><ele>71.0</ele><time>2026-04-07T16:45:51.997Z</time></trkpt><trkpt lat="49.145530541958344" lon="2.5017893669459634"><ele>72.0</ele><time>2026-04-07T16:45:54Z</time></trkpt><trkpt lat="49.1454524529053" lon="2.5017207765544183"><ele>73.0</ele><time>2026-04-07T16:45:56Z</time></trkpt><trkpt lat="49.145375460876146" lon="2.5016532686228197"><ele>73.0</ele><time>2026-04-07T16:45:58Z</time></trkpt><trkpt lat="49.14529862001556" lon="2.5015903349997886"><ele>73.0</ele><time>2026-04-07T16:46:00Z</time></trkpt><trkpt lat="49.14522660598662" lon="2.501512980678594"><ele>73.0</ele><time>2026-04-07T16:46:02Z</time></trkpt><trkpt lat="49.14515082966013" lon="2.501444803287778"><ele>73.0</ele><time>2026-04-07T16:46:04Z</time></trkpt><trkpt lat="49.14507219774252" lon="2.501380169072987"><ele>73.0</ele><time>2026-04-07T16:46:06Z</time></trkpt><trkpt lat="49.144993250351135" lon="2.5013202389664104"><ele>73.0</ele><time>2026-04-07T16:46:08Z</time></trkpt><trkpt lat="49.14491893824275" lon="2.5012481019245345"><ele>73.16666666666666</ele><time>2026-04-07T16:46:10Z</time></trkpt><trkpt lat="49.144845513911804" lon="2.5011785472369747"><ele>73.33333333333333</ele><time>2026-04-07T16:46:12Z</time></trkpt><trkpt lat="49.14477052894692" lon="2.501114202747313"><ele>73.5</ele><time>2026-04-07T16:46:14Z</time></trkpt><trkpt lat="49.14469216952095" lon="2.501050548840195"><ele>73.66666666666667</ele><time>2026-04-07T16:46:16Z</time></trkpt><trkpt lat="49.14461435147266" lon="2.5009843744713462"><ele>73.83333333333334</ele><time>2026-04-07T16:46:18Z</time></trkpt><trkpt lat="49.14454040713859" lon="2.500922179345409"><ele>74.0</ele><time>2026-04-07T16:46:20Z</time></trkpt><trkpt lat="49.14446519624575" lon="2.5008576200035417"><ele>74.0</ele><time>2026-04-07T16:46:22Z</time></trkpt><trkpt lat="49.14439582394009" lon="2.500784415262798"><ele>74.0</ele><time>2026-04-07T16:46:24Z</time></trkpt><trkpt lat="49.144326221239965" lon="2.500718125893513"><ele>74.0</ele><time>2026-04-07T16:46:26Z</time></trkpt><trkpt lat="49.14425220354009" lon="2.500652945572843"><ele>74.0</ele><time>2026-04-07T16:46:28Z</time></trkpt><trkpt lat="49.14417697621405" lon="2.500588747113125"><ele>74.0</ele><time>2026-04-07T16:46:30Z</time></trkpt><trkpt lat="49.144102723509725" lon="2.5005268628385626"><ele>74.0</ele><time>2026-04-07T16:46:31.999Z</time></trkpt><trkpt lat="49.144028519257404" lon="2.5004602701833205"><ele>74.33333333333334</ele><time>2026-04-07T16:46:33.999Z</time></trkpt><trkpt lat="49.143959353607" lon="2.5003921630793906"><ele>74.66666666666667</ele><time>2026-04-07T16:46:35.999Z</time></trkpt><trkpt lat="49.14388581848332" lon="2.5003262472481866"><ele>75.0</ele><time>2026-04-07T16:46:37.999Z</time></trkpt><trkpt lat="49.14380643894891" lon="2.5002621414954147"><ele>75.33333333333333</ele><time>2026-04-07T16:46:39.999Z</time></trkpt><trkpt lat="49.1437357711721" lon="2.5002043133072784"><ele>75.66666666666666</ele><time>2026-04-07T16:46:41.999Z</time></trkpt><trkpt lat="49.14366315559256" lon="2.5001399009125773"><ele>76.0</ele><time>2026-04-07T16:46:43.999Z</time></trkpt><trkpt lat="49.14359133467442" lon="2.5000761834751946"><ele>76.0</ele><time>2026-04-07T16:46:45.999Z</time></trkpt><trkpt lat="49.14351623192697" lon="2.500018037609012"><ele>76.0</ele><time>2026-04-07T16:46:47.999Z</time></trkpt><trkpt lat="49.14344290331315" lon="2.499952340663445"><ele>76.0</ele><time>2026-04-07T16:46:49.999Z</time></trkpt><trkpt lat="49.143369689133195" lon="2.499887348617999"><ele>76.0</ele><time>2026-04-07T16:46:51.999Z</time></trkpt><trkpt lat="49.14329986919816" lon="2.4998158078382056"><ele>76.0</ele><time>2026-04-07T16:46:53.999Z</time></trkpt><trkpt lat="49.14322476925084" lon="2.4997503102720966"><ele>76.0</ele><time>2026-04-07T16:46:55.999Z</time></trkpt><trkpt lat="49.14314816915876" lon="2.499694103306941"><ele>76.16666666666666</ele><time>2026-04-07T16:46:57.999Z</time></trkpt><trkpt lat="49.14307539319243" lon="2.4996298760063262"><ele>76.33333333333333</ele><time>2026-04-07T16:46:59.999Z</time></trkpt><trkpt lat="49.14300454142684" lon="2.499566019128245"><ele>76.5</ele><time>2026-04-07T16:47:01.999Z</time></trkpt><trkpt lat="49.14292735350944" lon="2.4994977349558463"><ele>76.66666666666667</ele><time>2026-04-07T16:47:03.998Z</time></trkpt><trkpt lat="49.14284877787549" lon="2.4994345711497545"><ele>76.83333333333334</ele><time>2026-04-07T16:47:05.998Z</time></trkpt><trkpt lat="49.14277192555788" lon="2.4993629119635363"><ele>77.0</ele><time>2026-04-07T16:47:07.998Z</time></trkpt><trkpt lat="49.14269324961785" lon="2.4992947264853824"><ele>77.0</ele><time>2026-04-07T16:47:09.998Z</time></trkpt><trkpt lat="49.14261549588561" lon="2.499223735881252"><ele>77.0</ele><time>2026-04-07T16:47:11.998Z</time></trkpt><trkpt lat="49.14254711426705" lon="2.4991597702905084"><ele>77.0</ele><time>2026-04-07T16:47:13.998Z</time></trkpt><trkpt lat="49.14247369916077" lon="2.4990901914390005"><ele>77.0</ele><time>2026-04-07T16:47:15.998Z</time></trkpt><trkpt lat="49.1423955602646" lon="2.4990220233579987"><ele>77.0</ele><time>2026-04-07T16:47:17.998Z</time></trkpt><trkpt lat="49.142319085124214" lon="2.4989535298761503"><ele>77.0</ele><time>2026-04-07T16:47:19.998Z</time></trkpt><trkpt lat="49.14224604229923" lon="2.4988861973923036"><ele>77.2</ele><time>2026-04-07T16:47:21.998Z</time></trkpt><trkpt lat="49.14216996954203" lon="2.4988177650620087"><ele>77.4</ele><time>2026-04-07T16:47:23.998Z</time></trkpt><trkpt lat="49.14209679386143" lon="2.498746484027944"><ele>77.6</ele><time>2026-04-07T16:47:25.998Z</time></trkpt><trkpt lat="49.14201421050872" lon="2.4986739584905875"><ele>77.8</ele><time>2026-04-07T16:47:27.998Z</time></trkpt><trkpt lat="49.14193391742983" lon="2.4985984135475374"><ele>78.0</ele><time>2026-04-07T16:47:29.998Z</time></trkpt><trkpt lat="49.14184774242658" lon="2.4985291640993426"><ele>78.4</ele><time>2026-04-07T16:47:31.998Z</time></trkpt><trkpt lat="49.14176523450211" lon="2.498454805007162"><ele>78.8</ele><time>2026-04-07T16:47:33.998Z</time></trkpt><trkpt lat="49.14168309725294" lon="2.4983825142533562"><ele>79.2</ele><time>2026-04-07T16:47:35.998Z</time></trkpt><trkpt lat="49.141601029973835" lon="2.498317524253226"><ele>79.6</ele><time>2026-04-07T16:47:37.997Z</time></trkpt><trkpt lat="49.14152558118341" lon="2.4982408473322946"><ele>80.0</ele><time>2026-04-07T16:47:39.997Z</time></trkpt><trkpt lat="49.141448545141536" lon="2.498170973025841"><ele>80.0</ele><time>2026-04-07T16:47:41.997Z</time></trkpt><trkpt lat="49.14136824885993" lon="2.4981051850327454"><ele>80.0</ele><time>2026-04-07T16:47:43.997Z</time></trkpt><trkpt lat="49.14129058730902" lon="2.498046212090442"><ele>80.0</ele><time>2026-04-07T16:47:45.997Z</time></trkpt><trkpt lat="49.141213055324485" lon="2.497980120358289"><ele>80.0</ele><time>2026-04-07T16:47:47.997Z</time></trkpt><trkpt lat="49.141138362159836" lon="2.4979145096859434"><ele>80.0</ele><time>2026-04-07T16:47:49.997Z</time></trkpt><trkpt lat="49.14106709061134" lon="2.497850958544986"><ele>80.0</ele><time>2026-04-07T16:47:51.997Z</time></trkpt><trkpt lat="49.14099206415517" lon="2.49778256323633"><ele>80.0</ele><time>2026-04-07T16:47:53.997Z</time></trkpt><trkpt lat="49.140917809185645" lon="2.4977162558719757"><ele>80.0</ele><time>2026-04-07T16:47:55.997Z</time></trkpt><trkpt lat="49.140835100843724" lon="2.4976599037961633"><ele>80.0</ele><time>2026-04-07T16:47:57.997Z</time></trkpt><trkpt lat="49.14076343279249" lon="2.497583871776201"><ele>80.0</ele><time>2026-04-07T16:48:00Z</time></trkpt><trkpt lat="49.14067940310785" lon="2.4975128184957986"><ele>80.0</ele><time>2026-04-07T16:48:02Z</time></trkpt><trkpt lat="49.140596216815396" lon="2.4974326204891137"><ele>80.4</ele><time>2026-04-07T16:48:04Z</time></trkpt><trkpt lat="49.14050965054404" lon="2.4973647250042013"><ele>80.8</ele><time>2026-04-07T16:48:06Z</time></trkpt><trkpt lat="49.14043076450875" lon="2.4972893562384133"><ele>81.19999999999999</ele><time>2026-04-07T16:48:08Z</time></trkpt><trkpt lat="49.14034910917634" lon="2.497215491467778"><ele>81.6</ele><time>2026-04-07T16:48:10Z</time></trkpt><trkpt lat="49.14027469952192" lon="2.4971388629432716"><ele>82.0</ele><time>2026-04-07T16:48:12Z</time></trkpt><trkpt lat="49.140192362248555" lon="2.4970712711421554"><ele>82.19999999999999</ele><time>2026-04-07T16:48:14Z</time></trkpt><trkpt lat="49.14011021108603" lon="2.497000322141273"><ele>82.4</ele><time>2026-04-07T16:48:16Z</time></trkpt><trkpt lat="49.14002911505781" lon="2.4969271928566035"><ele>82.6</ele><time>2026-04-07T16:48:18Z</time></trkpt><trkpt lat="49.13995070394352" lon="2.4968540498450373"><ele>82.80000000000001</ele><time>2026-04-07T16:48:20Z</time></trkpt><trkpt lat="49.13986692789486" lon="2.496786027576074"><ele>83.0</ele><time>2026-04-07T16:48:22Z</time></trkpt><trkpt lat="49.13978926512323" lon="2.496713333489629"><ele>83.0</ele><time>2026-04-07T16:48:24Z</time></trkpt><trkpt lat="49.13971186404659" lon="2.4966451415844015"><ele>83.0</ele><time>2026-04-07T16:48:26Z</time></trkpt><trkpt lat="49.139628396542484" lon="2.496574693000108"><ele>83.0</ele><time>2026-04-07T16:48:28Z</time></trkpt><trkpt lat="49.13954442105553" lon="2.49650568860149"><ele>83.0</ele><time>2026-04-07T16:48:30Z</time></trkpt><trkpt lat="49.13946592133895" lon="2.496434565484244"><ele>83.0</ele><time>2026-04-07T16:48:32Z</time></trkpt><trkpt lat="49.139385380526626" lon="2.496366094454776"><ele>83.0</ele><time>2026-04-07T16:48:34Z</time></trkpt><trkpt lat="49.13930888258135" lon="2.4962979393782914"><ele>83.0</ele><time>2026-04-07T16:48:36Z</time></trkpt><trkpt lat="49.1392305404056" lon="2.4962295024941374"><ele>83.0</ele><time>2026-04-07T16:48:37.999Z</time></trkpt><trkpt lat="49.139156336151885" lon="2.4961638370246746"><ele>83.0</ele><time>2026-04-07T16:48:39.999Z</time></trkpt><trkpt lat="49.13907739934078" lon="2.496099271520455"><ele>83.0</ele><time>2026-04-07T16:48:41.999Z</time></trkpt><trkpt lat="49.13900669489388" lon="2.496024704683077"><ele>83.0</ele><time>2026-04-07T16:48:43.999Z</time></trkpt><trkpt lat="49.1389326591569" lon="2.4959772050672178"><ele>83.71428571428571</ele><time>2026-04-07T16:48:45.999Z</time></trkpt><trkpt lat="49.13887085275006" lon="2.495937024698483"><ele>84.42857142857143</ele><time>2026-04-07T16:48:47.999Z</time></trkpt><trkpt lat="49.13881853549261" lon="2.4958694652036275"><ele>85.14285714285714</ele><time>2026-04-07T16:48:50.999Z</time></trkpt><trkpt lat="49.13875468594658" lon="2.4959464912454545"><ele>85.85714285714286</ele><time>2026-04-07T16:48:53.999Z</time></trkpt><trkpt lat="49.138747598565125" lon="2.496050256919378"><ele>86.57142857142857</ele><time>2026-04-07T16:48:55.999Z</time></trkpt><trkpt lat="49.1387459526624" lon="2.496164228136366"><ele>87.28571428571429</ele><time>2026-04-07T16:48:57.999Z</time></trkpt><trkpt lat="49.138746770523035" lon="2.496279354619836"><ele>88.0</ele><time>2026-04-07T16:48:59.999Z</time></trkpt><trkpt lat="49.13874419402605" lon="2.4963872854223577"><ele>88.0</ele><time>2026-04-07T16:49:01.999Z</time></trkpt><trkpt lat="49.138742384586685" lon="2.4965137154150794"><ele>88.0</ele><time>2026-04-07T16:49:03.999Z</time></trkpt><trkpt lat="49.13873726057836" lon="2.4966454522062462"><ele>88.0</ele><time>2026-04-07T16:49:05.999Z</time></trkpt><trkpt lat="49.13873554356307" lon="2.49677940301164"><ele>88.0</ele><time>2026-04-07T16:49:07.999Z</time></trkpt><trkpt lat="49.138735735687945" lon="2.4969153636034704"><ele>88.0</ele><time>2026-04-07T16:49:09.998Z</time></trkpt><trkpt lat="49.13873194935873" lon="2.4970543366766504"><ele>88.0</ele><time>2026-04-07T16:49:11.998Z</time></trkpt><trkpt lat="49.13872927512839" lon="2.497194342826838"><ele>88.0</ele><time>2026-04-07T16:49:13.998Z</time></trkpt><trkpt lat="49.13872420647605" lon="2.497335077618465"><ele>88.0</ele><time>2026-04-07T16:49:15.998Z</time></trkpt><trkpt lat="49.13871737873288" lon="2.4974778297226803"><ele>88.0</ele><time>2026-04-07T16:49:17.998Z</time></trkpt><trkpt lat="49.13871632955177" lon="2.4976140897694346"><ele>88.0</ele><time>2026-04-07T16:49:19.998Z</time></trkpt><trkpt lat="49.13871519380012" lon="2.4977514533556313"><ele>88.0</ele><time>2026-04-07T16:49:21.998Z</time></trkpt><trkpt lat="49.13870960095558" lon="2.497893439813741"><ele>88.0</ele><time>2026-04-07T16:49:23.998Z</time></trkpt><trkpt lat="49.13870854567472" lon="2.4980369125645874"><ele>88.0</ele><time>2026-04-07T16:49:25.998Z</time></trkpt><trkpt lat="49.13871497881889" lon="2.498173286182671"><ele>88.0</ele><time>2026-04-07T16:49:27.998Z</time></trkpt><trkpt lat="49.13871071507402" lon="2.498304662816122"><ele>88.0</ele><time>2026-04-07T16:49:29.998Z</time></trkpt><trkpt lat="49.13870712134848" lon="2.498435484257469"><ele>88.0</ele><time>2026-04-07T16:49:31.998Z</time></trkpt><trkpt lat="49.138701779225904" lon="2.4985661034236126"><ele>88.0</ele><time>2026-04-07T16:49:33.998Z</time></trkpt><trkpt lat="49.13871071808638" lon="2.4986914100251227"><ele>88.0</ele><time>2026-04-07T16:49:35.998Z</time></trkpt><trkpt lat="49.138707766143305" lon="2.4988124228693565"><ele>88.0</ele><time>2026-04-07T16:49:37.998Z</time></trkpt><trkpt lat="49.13870037122682" lon="2.4989320655437"><ele>88.0</ele><time>2026-04-07T16:49:39.998Z</time></trkpt><trkpt lat="49.13869932004237" lon="2.4990527976243353"><ele>88.0</ele><time>2026-04-07T16:49:41.998Z</time></trkpt><trkpt lat="49.13870021154834" lon="2.4991747406342055"><ele>88.0</ele><time>2026-04-07T16:49:43.997Z</time></trkpt><trkpt lat="49.13869877365937" lon="2.4992922889364313"><ele>88.0</ele><time>2026-04-07T16:49:45.997Z</time></trkpt><trkpt lat="49.138689754384394" lon="2.4994239580934945"><ele>88.0</ele><time>2026-04-07T16:49:47.997Z</time></trkpt><trkpt lat="49.13869007391718" lon="2.4995638483575946"><ele>88.0</ele><time>2026-04-07T16:49:49.997Z</time></trkpt><trkpt lat="49.138696769081655" lon="2.499698165531169"><ele>88.0</ele><time>2026-04-07T16:49:51.997Z</time></trkpt><trkpt lat="49.138685943917146" lon="2.499834345217808"><ele>88.0</ele><time>2026-04-07T16:49:53.997Z</time></trkpt><trkpt lat="49.1386857709791" lon="2.499979101127343"><ele>88.0</ele><time>2026-04-07T16:49:55.997Z</time></trkpt><trkpt lat="49.138681082917756" lon="2.5001294601680177"><ele>87.4</ele><time>2026-04-07T16:49:57.997Z</time></trkpt><trkpt lat="49.138679605218584" lon="2.5002916258559162"><ele>86.80000000000001</ele><time>2026-04-07T16:49:59.997Z</time></trkpt><trkpt lat="49.13867179009767" lon="2.500456119347938"><ele>86.2</ele><time>2026-04-07T16:50:01.997Z</time></trkpt><trkpt lat="49.138667009768895" lon="2.500620837149231"><ele>85.6</ele><time>2026-04-07T16:50:04Z</time></trkpt><trkpt lat="49.13865729382564" lon="2.5007871922819436"><ele>85.0</ele><time>2026-04-07T16:50:06Z</time></trkpt><trkpt lat="49.138654086710815" lon="2.5009475455672963"><ele>84.83333333333333</ele><time>2026-04-07T16:50:08Z</time></trkpt><trkpt lat="49.138656086762396" lon="2.501119820960506"><ele>84.66666666666666</ele><time>2026-04-07T16:50:10Z</time></trkpt><trkpt lat="49.138647238094045" lon="2.5013082086088523"><ele>84.5</ele><time>2026-04-07T16:50:12Z</time></trkpt><trkpt lat="49.13863210179321" lon="2.501406076107395"><ele>84.33333333333333</ele><time>2026-04-07T16:50:13Z</time></trkpt><trkpt lat="49.13861428781756" lon="2.5015064611353397"><ele>84.16666666666667</ele><time>2026-04-07T16:50:14Z</time></trkpt><trkpt lat="49.13859086113898" lon="2.501604203332459"><ele>84.0</ele><time>2026-04-07T16:50:15Z</time></trkpt><trkpt lat="49.13856741265093" lon="2.501702062450374"><ele>83.71428571428571</ele><time>2026-04-07T16:50:16Z</time></trkpt><trkpt lat="49.13854236169904" lon="2.5017981450632663"><ele>83.42857142857143</ele><time>2026-04-07T16:50:17Z</time></trkpt><trkpt lat="49.13850124630805" lon="2.5018918415118367"><ele>83.14285714285714</ele><time>2026-04-07T16:50:18Z</time></trkpt><trkpt lat="49.13846940344685" lon="2.501996200773553"><ele>82.85714285714286</ele><time>2026-04-07T16:50:19Z</time></trkpt><trkpt lat="49.138436278171795" lon="2.5020869324498762"><ele>82.57142857142857</ele><time>2026-04-07T16:50:20Z</time></trkpt><trkpt lat="49.13839735256063" lon="2.502181999902217"><ele>82.28571428571428</ele><time>2026-04-07T16:50:21Z</time></trkpt><trkpt lat="49.138358054469734" lon="2.5022880801098317"><ele>82.0</ele><time>2026-04-07T16:50:22Z</time></trkpt><trkpt lat="49.13831615193265" lon="2.5023916270878805"><ele>81.5</ele><time>2026-04-07T16:50:23Z</time></trkpt><trkpt lat="49.13827288667714" lon="2.502495517465885"><ele>81.0</ele><time>2026-04-07T16:50:24Z</time></trkpt><trkpt lat="49.13822929290075" lon="2.502600974509486"><ele>80.5</ele><time>2026-04-07T16:50:25Z</time></trkpt><trkpt lat="49.13818284763434" lon="2.5027066628600534"><ele>80.0</ele><time>2026-04-07T16:50:26Z</time></trkpt><trkpt lat="49.13814029113633" lon="2.5028166831378424"><ele>79.5</ele><time>2026-04-07T16:50:27Z</time></trkpt><trkpt lat="49.13809440966128" lon="2.5029313761343266"><ele>79.0</ele><time>2026-04-07T16:50:28Z</time></trkpt><trkpt lat="49.13805345694064" lon="2.5030473661735364"><ele>78.60000000000001</ele><time>2026-04-07T16:50:29Z</time></trkpt><trkpt lat="49.13800908809028" lon="2.5031673752102566"><ele>78.2</ele><time>2026-04-07T16:50:30Z</time></trkpt><trkpt lat="49.13796136807717" lon="2.5032829405123644"><ele>77.80000000000001</ele><time>2026-04-07T16:50:31Z</time></trkpt><trkpt lat="49.13791803630664" lon="2.503403913575033"><ele>77.4</ele><time>2026-04-07T16:50:32Z</time></trkpt><trkpt lat="49.13787495284711" lon="2.503530129355997"><ele>77.0</ele><time>2026-04-07T16:50:33Z</time></trkpt><trkpt lat="49.13783655040847" lon="2.503658434600593"><ele>77.0</ele><time>2026-04-07T16:50:34Z</time></trkpt><trkpt lat="49.13780231586887" lon="2.5037905399410803"><ele>77.0</ele><time>2026-04-07T16:50:35Z</time></trkpt><trkpt lat="49.13777469872441" lon="2.503923624635017"><ele>77.0</ele><time>2026-04-07T16:50:35.999Z</time></trkpt><trkpt lat="49.137744007636016" lon="2.5040500533426857"><ele>77.0</ele><time>2026-04-07T16:50:36.999Z</time></trkpt><trkpt lat="49.13771598010129" lon="2.504178955324233"><ele>77.0</ele><time>2026-04-07T16:50:37.999Z</time></trkpt><trkpt lat="49.13768763973692" lon="2.504310465746821"><ele>77.0</ele><time>2026-04-07T16:50:38.999Z</time></trkpt><trkpt lat="49.13766365148213" lon="2.5044433525112604"><ele>77.0</ele><time>2026-04-07T16:50:39.999Z</time></trkpt><trkpt lat="49.1376318404085" lon="2.504568616301955"><ele>77.0</ele><time>2026-04-07T16:50:40.999Z</time></trkpt><trkpt lat="49.13760267858391" lon="2.5046961109478305"><ele>77.0</ele><time>2026-04-07T16:50:41.999Z</time></trkpt><trkpt lat="49.13756637546606" lon="2.5048168870929337"><ele>77.0</ele><time>2026-04-07T16:50:42.999Z</time></trkpt><trkpt lat="49.137524244842005" lon="2.5049235894109776"><ele>77.0</ele><time>2026-04-07T16:50:43.999Z</time></trkpt><trkpt lat="49.13747615351401" lon="2.505023372014983"><ele>77.0</ele><time>2026-04-07T16:50:44.999Z</time></trkpt><trkpt lat="49.13742205063074" lon="2.5051152490018826"><ele>77.0</ele><time>2026-04-07T16:50:45.999Z</time></trkpt><trkpt lat="49.13737274749155" lon="2.505203675865474"><ele>77.0</ele><time>2026-04-07T16:50:46.999Z</time></trkpt><trkpt lat="49.13732160915037" lon="2.5052897999683053"><ele>77.0</ele><time>2026-04-07T16:50:47.999Z</time></trkpt><trkpt lat="49.13727436329975" lon="2.505374450911002"><ele>77.0</ele><time>2026-04-07T16:50:48.999Z</time></trkpt><trkpt lat="49.13722585456208" lon="2.505449045561791"><ele>77.0</ele><time>2026-04-07T16:50:49.999Z</time></trkpt><trkpt lat="49.13717738424743" lon="2.505524240073402"><ele>77.0</ele><time>2026-04-07T16:50:50.999Z</time></trkpt><trkpt lat="49.137131695009636" lon="2.5055941655247187"><ele>77.8</ele><time>2026-04-07T16:50:51.999Z</time></trkpt><trkpt lat="49.137086645072095" lon="2.5056690443774987"><ele>78.6</ele><time>2026-04-07T16:50:52.999Z</time></trkpt><trkpt lat="49.13704422761401" lon="2.5057404346775853"><ele>79.39999999999999</ele><time>2026-04-07T16:50:53.999Z</time></trkpt><trkpt lat="49.13696595996203" lon="2.505870892330253"><ele>80.2</ele><time>2026-04-07T16:50:55.999Z</time></trkpt><trkpt lat="49.13688946938859" lon="2.5059855365248045"><ele>81.0</ele><time>2026-04-07T16:50:57.999Z</time></trkpt><trkpt lat="49.13681660833036" lon="2.5061069038743016"><ele>81.0</ele><time>2026-04-07T16:50:59.999Z</time></trkpt><trkpt lat="49.13675383750274" lon="2.5062145865705987"><ele>81.0</ele><time>2026-04-07T16:51:01.999Z</time></trkpt><trkpt lat="49.13668907566387" lon="2.506317002131963"><ele>81.0</ele><time>2026-04-07T16:51:03.999Z</time></trkpt><trkpt lat="49.13662562464386" lon="2.5064133059813978"><ele>81.0</ele><time>2026-04-07T16:51:05.999Z</time></trkpt><trkpt lat="49.13655798763516" lon="2.5064949783385266"><ele>81.0</ele><time>2026-04-07T16:51:07.999Z</time></trkpt><trkpt lat="49.13648448942168" lon="2.506566870372339"><ele>81.0</ele><time>2026-04-07T16:51:09.998Z</time></trkpt><trkpt lat="49.1364105873572" lon="2.5066447827243508"><ele>81.0</ele><time>2026-04-07T16:51:11.998Z</time></trkpt><trkpt lat="49.136335904973265" lon="2.5067253811221604"><ele>81.0</ele><time>2026-04-07T16:51:13.998Z</time></trkpt><trkpt lat="49.13626143460966" lon="2.506805750655146"><ele>81.0</ele><time>2026-04-07T16:51:15.998Z</time></trkpt><trkpt lat="49.13618903973051" lon="2.5068764270594963"><ele>81.0</ele><time>2026-04-07T16:51:17.998Z</time></trkpt><trkpt lat="49.13611600091252" lon="2.5069477410796686"><ele>81.0</ele><time>2026-04-07T16:51:19.998Z</time></trkpt><trkpt lat="49.136042076854096" lon="2.507027813377766"><ele>79.8</ele><time>2026-04-07T16:51:21.998Z</time></trkpt><trkpt lat="49.13596403747547" lon="2.5071097630813526"><ele>78.6</ele><time>2026-04-07T16:51:23.998Z</time></trkpt><trkpt lat="49.13588014692857" lon="2.507169234960773"><ele>77.4</ele><time>2026-04-07T16:51:25.998Z</time></trkpt><trkpt lat="49.135795321304116" lon="2.507237456329856"><ele>76.2</ele><time>2026-04-07T16:51:27.998Z</time></trkpt><trkpt lat="49.135673885859255" lon="2.507176096239111"><ele>75.0</ele><time>2026-04-07T16:51:29.998Z</time></trkpt><trkpt lat="49.13557241318362" lon="2.5071562233117493"><ele>75.0</ele><time>2026-04-07T16:51:31.998Z</time></trkpt><trkpt lat="49.13547556071659" lon="2.507134317300492"><ele>75.0</ele><time>2026-04-07T16:51:33.998Z</time></trkpt><trkpt lat="49.13537621921434" lon="2.5071077233082297"><ele>75.0</ele><time>2026-04-07T16:51:35.998Z</time></trkpt><trkpt lat="49.135281066721895" lon="2.5070942477130256"><ele>75.0</ele><time>2026-04-07T16:51:37.998Z</time></trkpt><trkpt lat="49.135185096259285" lon="2.507075795743403"><ele>75.0</ele><time>2026-04-07T16:51:39.998Z</time></trkpt><trkpt lat="49.1350914565257" lon="2.507060888185445"><ele>76.0</ele><time>2026-04-07T16:51:41.998Z</time></trkpt><trkpt lat="49.134999770363194" lon="2.5070264340191066"><ele>77.0</ele><time>2026-04-07T16:51:43.997Z</time></trkpt><trkpt lat="49.13490809952865" lon="2.506997404582998"><ele>78.0</ele><time>2026-04-07T16:51:45.997Z</time></trkpt><trkpt lat="49.13481463957071" lon="2.506974949331263"><ele>79.0</ele><time>2026-04-07T16:51:47.997Z</time></trkpt><trkpt lat="49.13472541476835" lon="2.506945365725593"><ele>80.0</ele><time>2026-04-07T16:51:49.997Z</time></trkpt><trkpt lat="49.1346368424265" lon="2.5069166606334554"><ele>80.0</ele><time>2026-04-07T16:51:51.997Z</time></trkpt><trkpt lat="49.13455105102036" lon="2.5068794433878225"><ele>80.0</ele><time>2026-04-07T16:51:53.997Z</time></trkpt><trkpt lat="49.1344768536983" lon="2.506828863277929"><ele>80.0</ele><time>2026-04-07T16:51:55.997Z</time></trkpt><trkpt lat="49.134402357141234" lon="2.5067938858283654"><ele>80.0</ele><time>2026-04-07T16:51:57.997Z</time></trkpt><trkpt lat="49.134326389079035" lon="2.506743362873001"><ele>80.0</ele><time>2026-04-07T16:51:59.997Z</time></trkpt><trkpt lat="49.134259768621426" lon="2.5066943924628213"><ele>80.0</ele><time>2026-04-07T16:52:01.997Z</time></trkpt><trkpt lat="49.13416887945292" lon="2.5068939876290197"><ele>80.0</ele><time>2026-04-07T16:52:04.997Z</time></trkpt><trkpt lat="49.134105325874096" lon="2.5070237641801554"><ele>80.0</ele><time>2026-04-07T16:52:06.997Z</time></trkpt><trkpt lat="49.134049150004245" lon="2.5071646858206127"><ele>80.0</ele><time>2026-04-07T16:52:09Z</time></trkpt><trkpt lat="49.133990549264595" lon="2.5073100854510524"><ele>80.0</ele><time>2026-04-07T16:52:11Z</time></trkpt><trkpt lat="49.13394126706709" lon="2.5074739969931508"><ele>80.0</ele><time>2026-04-07T16:52:13Z</time></trkpt><trkpt lat="49.133885849172735" lon="2.5076154663729677"><ele>79.5</ele><time>2026-04-07T16:52:15Z</time></trkpt><trkpt lat="49.13381639816762" lon="2.507743797866676"><ele>79.0</ele><time>2026-04-07T16:52:17Z</time></trkpt><trkpt lat="49.133767038567406" lon="2.5078681417342295"><ele>78.5</ele><time>2026-04-07T16:52:19Z</time></trkpt><trkpt lat="49.133718889237755" lon="2.5079894842468224"><ele>78.0</ele><time>2026-04-07T16:52:21Z</time></trkpt><trkpt lat="49.13355617374939" lon="2.5079199431144934"><ele>78.0</ele><time>2026-04-07T16:56:20Z</time></trkpt><trkpt lat="49.13351406419695" lon="2.507794028318165"><ele>78.0</ele><time>2026-04-07T16:59:19.999Z</time></trkpt><trkpt lat="49.13353737097304" lon="2.5079099910149654"><ele>78.0</ele><time>2026-04-07T16:59:22.999Z</time></trkpt><trkpt lat="49.13361958043363" lon="2.507879114322122"><ele>78.0</ele><time>2026-04-07T18:27:34.999Z</time></trkpt><trkpt lat="49.13354673902518" lon="2.507887302033818"><ele>78.0</ele><time>2026-04-07T18:41:50.999Z</time></trkpt><trkpt lat="49.13353015938324" lon="2.508009134795518"><ele>78.0</ele><time>2026-04-07T19:10:16.998Z</time></trkpt><trkpt lat="49.133553506786555" lon="2.508121572644827"><ele>78.0</ele><time>2026-04-07T19:10:18.998Z</time></trkpt><trkpt lat="49.133642758953805" lon="2.508108459834243"><ele>78.0</ele><time>2026-04-07T19:10:33Z</time></trkpt><trkpt lat="49.13359634096892" lon="2.5080387198677694"><ele>78.0</ele><time>2026-04-07T19:10:46Z</time></trkpt><trkpt lat="49.13368139224967" lon="2.5079552662689855"><ele>78.0</ele><time>2026-04-07T19:21:46.999Z</time></trkpt><trkpt lat="49.13361302999626" lon="2.5079286567793955"><ele>78.0</ele><time>2026-04-07T19:21:57.998Z</time></trkpt><trkpt lat="49.133561027207826" lon="2.5078739122061213"><ele>78.0</ele><time>2026-04-07T19:28:29.998Z</time></trkpt><trkpt lat="49.13362988567998" lon="2.5078985158227827"><ele>77.0</ele><time>2026-04-07T19:41:41.997Z</time></trkpt><trkpt lat="49.133521359799666" lon="2.5079373815529764"><ele>78.0</ele><time>2026-04-07T19:41:44.997Z</time></trkpt><trkpt lat="49.133467183625356" lon="2.5079973690282067"><ele>78.0</ele><time>2026-04-07T19:41:45.997Z</time></trkpt><trkpt lat="49.13351921367598" lon="2.507921430953104"><ele>78.0</ele><time>2026-04-07T19:41:55Z</time></trkpt></trkseg></trk></gpx>